<?xml version="1.0" encoding="UTF-8" standalone="no" ?>
<gpx xmlns="http://www.topografix.com/GPX/1/1" xmlns:xsi="http://www.w3.org/2001/XMLSchema-instance" xsi:schemaLocation="http://www.topografix.com/GPX/1/1 http://www.topografix.com/GPX/1/1/gpx.xsd" version="1.1" creator="VisuGPX - https://www.visugpx.com">
  <metadata>
    <name>Trace rando. Crête du Rozier</name>
    <desc><![CDATA[Sortie effectuée par 20 randonneurs du SCLapalud le dimanche 20 février]]></desc>
  </metadata>
  <trk>
    <name><![CDATA[ACTIVE LOG]]></name>
    <trkseg>
      <trkpt lat="44.47665" lon="5.02909">
        <ele>337.560059</ele>
        <time>2011-02-20T09:03:43Z</time>
      </trkpt>
      <trkpt lat="44.47665" lon="5.02909">
        <ele>337.560059</ele>
        <time>2011-02-20T09:03:44Z</time>
      </trkpt>
      <trkpt lat="44.47665" lon="5.02909">
        <ele>339.963379</ele>
        <time>2011-02-20T09:03:49Z</time>
      </trkpt>
      <trkpt lat="44.47665" lon="5.02909">
        <ele>343.327881</ele>
        <time>2011-02-20T09:03:54Z</time>
      </trkpt>
      <trkpt lat="44.47665" lon="5.02909">
        <ele>344.77002</ele>
        <time>2011-02-20T09:03:56Z</time>
      </trkpt>
      <trkpt lat="44.47664" lon="5.02909">
        <ele>346.692627</ele>
        <time>2011-02-20T09:04:00Z</time>
      </trkpt>
      <trkpt lat="44.47663" lon="5.02909">
        <ele>350.057251</ele>
        <time>2011-02-20T09:04:07Z</time>
      </trkpt>
      <trkpt lat="44.47662" lon="5.02909">
        <ele>350.057251</ele>
        <time>2011-02-20T09:04:08Z</time>
      </trkpt>
      <trkpt lat="44.47662" lon="5.02909">
        <ele>352.941162</ele>
        <time>2011-02-20T09:04:17Z</time>
      </trkpt>
      <trkpt lat="44.47662" lon="5.02909">
        <ele>356.305786</ele>
        <time>2011-02-20T09:04:31Z</time>
      </trkpt>
      <trkpt lat="44.47662" lon="5.02909">
        <ele>359.67041</ele>
        <time>2011-02-20T09:04:53Z</time>
      </trkpt>
      <trkpt lat="44.47661" lon="5.0291">
        <ele>360.631714</ele>
        <time>2011-02-20T09:07:22Z</time>
      </trkpt>
      <trkpt lat="44.47675" lon="5.02912">
        <ele>361.112427</ele>
        <time>2011-02-20T09:08:19Z</time>
      </trkpt>
      <trkpt lat="44.47683" lon="5.02916">
        <ele>360.631714</ele>
        <time>2011-02-20T09:08:26Z</time>
      </trkpt>
      <trkpt lat="44.47687" lon="5.02916">
        <ele>361.112427</ele>
        <time>2011-02-20T09:08:30Z</time>
      </trkpt>
      <trkpt lat="44.47692" lon="5.02904">
        <ele>360.151123</ele>
        <time>2011-02-20T09:08:41Z</time>
      </trkpt>
      <trkpt lat="44.47695" lon="5.02877">
        <ele>357.26709</ele>
        <time>2011-02-20T09:09:03Z</time>
      </trkpt>
      <trkpt lat="44.47698" lon="5.02871">
        <ele>356.305786</ele>
        <time>2011-02-20T09:09:13Z</time>
      </trkpt>
      <trkpt lat="44.4771" lon="5.02875">
        <ele>355.825195</ele>
        <time>2011-02-20T09:09:26Z</time>
      </trkpt>
      <trkpt lat="44.47713" lon="5.02876">
        <ele>355.825195</ele>
        <time>2011-02-20T09:09:28Z</time>
      </trkpt>
      <trkpt lat="44.47727" lon="5.02876">
        <ele>355.825195</ele>
        <time>2011-02-20T09:09:41Z</time>
      </trkpt>
      <trkpt lat="44.47745" lon="5.0288">
        <ele>355.825195</ele>
        <time>2011-02-20T09:09:55Z</time>
      </trkpt>
      <trkpt lat="44.47758" lon="5.02885">
        <ele>355.825195</ele>
        <time>2011-02-20T09:10:10Z</time>
      </trkpt>
      <trkpt lat="44.47772" lon="5.02889">
        <ele>355.825195</ele>
        <time>2011-02-20T09:10:25Z</time>
      </trkpt>
      <trkpt lat="44.47798" lon="5.02887">
        <ele>356.305786</ele>
        <time>2011-02-20T09:10:48Z</time>
      </trkpt>
      <trkpt lat="44.4781" lon="5.02885">
        <ele>356.305786</ele>
        <time>2011-02-20T09:11:03Z</time>
      </trkpt>
      <trkpt lat="44.47829" lon="5.02893">
        <ele>356.786377</ele>
        <time>2011-02-20T09:11:20Z</time>
      </trkpt>
      <trkpt lat="44.47844" lon="5.02902">
        <ele>356.786377</ele>
        <time>2011-02-20T09:11:35Z</time>
      </trkpt>
      <trkpt lat="44.47859" lon="5.02901">
        <ele>356.786377</ele>
        <time>2011-02-20T09:11:49Z</time>
      </trkpt>
      <trkpt lat="44.47873" lon="5.02901">
        <ele>355.825195</ele>
        <time>2011-02-20T09:12:05Z</time>
      </trkpt>
      <trkpt lat="44.47882" lon="5.029">
        <ele>354.86377</ele>
        <time>2011-02-20T09:12:12Z</time>
      </trkpt>
      <trkpt lat="44.47887" lon="5.02897">
        <ele>354.86377</ele>
        <time>2011-02-20T09:12:17Z</time>
      </trkpt>
      <trkpt lat="44.47894" lon="5.02897">
        <ele>354.383179</ele>
        <time>2011-02-20T09:12:27Z</time>
      </trkpt>
      <trkpt lat="44.479" lon="5.02896">
        <ele>353.902588</ele>
        <time>2011-02-20T09:12:32Z</time>
      </trkpt>
      <trkpt lat="44.47902" lon="5.02895">
        <ele>353.902588</ele>
        <time>2011-02-20T09:12:34Z</time>
      </trkpt>
      <trkpt lat="44.47924" lon="5.02892">
        <ele>352.941162</ele>
        <time>2011-02-20T09:12:51Z</time>
      </trkpt>
      <trkpt lat="44.47938" lon="5.02891">
        <ele>352.460571</ele>
        <time>2011-02-20T09:13:02Z</time>
      </trkpt>
      <trkpt lat="44.47959" lon="5.02886">
        <ele>351.018433</ele>
        <time>2011-02-20T09:13:19Z</time>
      </trkpt>
      <trkpt lat="44.4797" lon="5.02884">
        <ele>350.057251</ele>
        <time>2011-02-20T09:13:31Z</time>
      </trkpt>
      <trkpt lat="44.47997" lon="5.02867">
        <ele>348.134644</ele>
        <time>2011-02-20T09:13:53Z</time>
      </trkpt>
      <trkpt lat="44.4801" lon="5.02833">
        <ele>347.653931</ele>
        <time>2011-02-20T09:14:16Z</time>
      </trkpt>
      <trkpt lat="44.48022" lon="5.02794">
        <ele>346.692627</ele>
        <time>2011-02-20T09:14:40Z</time>
      </trkpt>
      <trkpt lat="44.48035" lon="5.02768">
        <ele>346.692627</ele>
        <time>2011-02-20T09:14:58Z</time>
      </trkpt>
      <trkpt lat="44.48055" lon="5.02735">
        <ele>346.692627</ele>
        <time>2011-02-20T09:15:20Z</time>
      </trkpt>
      <trkpt lat="44.48081" lon="5.02713">
        <ele>347.653931</ele>
        <time>2011-02-20T09:15:45Z</time>
      </trkpt>
      <trkpt lat="44.48103" lon="5.02691">
        <ele>348.615234</ele>
        <time>2011-02-20T09:16:07Z</time>
      </trkpt>
      <trkpt lat="44.4812" lon="5.02667">
        <ele>349.576538</ele>
        <time>2011-02-20T09:16:28Z</time>
      </trkpt>
      <trkpt lat="44.48131" lon="5.02649">
        <ele>350.057251</ele>
        <time>2011-02-20T09:16:44Z</time>
      </trkpt>
      <trkpt lat="44.48132" lon="5.02648">
        <ele>350.057251</ele>
        <time>2011-02-20T09:16:45Z</time>
      </trkpt>
      <trkpt lat="44.48151" lon="5.02624">
        <ele>351.018433</ele>
        <time>2011-02-20T09:17:06Z</time>
      </trkpt>
      <trkpt lat="44.48166" lon="5.02597">
        <ele>351.979858</ele>
        <time>2011-02-20T09:17:25Z</time>
      </trkpt>
      <trkpt lat="44.48167" lon="5.02594">
        <ele>351.979858</ele>
        <time>2011-02-20T09:17:28Z</time>
      </trkpt>
      <trkpt lat="44.48171" lon="5.02581">
        <ele>352.460571</ele>
        <time>2011-02-20T09:17:37Z</time>
      </trkpt>
      <trkpt lat="44.48176" lon="5.02574">
        <ele>352.460571</ele>
        <time>2011-02-20T09:17:44Z</time>
      </trkpt>
      <trkpt lat="44.48192" lon="5.02542">
        <ele>353.421875</ele>
        <time>2011-02-20T09:18:07Z</time>
      </trkpt>
      <trkpt lat="44.48207" lon="5.02514">
        <ele>354.86377</ele>
        <time>2011-02-20T09:18:27Z</time>
      </trkpt>
      <trkpt lat="44.48208" lon="5.02511">
        <ele>354.86377</ele>
        <time>2011-02-20T09:18:30Z</time>
      </trkpt>
      <trkpt lat="44.48225" lon="5.02487">
        <ele>356.305786</ele>
        <time>2011-02-20T09:18:50Z</time>
      </trkpt>
      <trkpt lat="44.48234" lon="5.02481">
        <ele>356.786377</ele>
        <time>2011-02-20T09:18:58Z</time>
      </trkpt>
      <trkpt lat="44.4826" lon="5.02488">
        <ele>357.26709</ele>
        <time>2011-02-20T09:19:21Z</time>
      </trkpt>
      <trkpt lat="44.48291" lon="5.02502">
        <ele>357.747803</ele>
        <time>2011-02-20T09:19:48Z</time>
      </trkpt>
      <trkpt lat="44.48323" lon="5.02516">
        <ele>358.708984</ele>
        <time>2011-02-20T09:20:16Z</time>
      </trkpt>
      <trkpt lat="44.48353" lon="5.02531">
        <ele>360.151123</ele>
        <time>2011-02-20T09:20:43Z</time>
      </trkpt>
      <trkpt lat="44.48369" lon="5.02538">
        <ele>361.112427</ele>
        <time>2011-02-20T09:21:02Z</time>
      </trkpt>
      <trkpt lat="44.48397" lon="5.02542">
        <ele>361.59314</ele>
        <time>2011-02-20T09:21:24Z</time>
      </trkpt>
      <trkpt lat="44.48423" lon="5.02546">
        <ele>361.59314</ele>
        <time>2011-02-20T09:21:45Z</time>
      </trkpt>
      <trkpt lat="44.48436" lon="5.02549">
        <ele>361.59314</ele>
        <time>2011-02-20T09:21:57Z</time>
      </trkpt>
      <trkpt lat="44.48455" lon="5.02549">
        <ele>361.59314</ele>
        <time>2011-02-20T09:22:11Z</time>
      </trkpt>
      <trkpt lat="44.48464" lon="5.0255">
        <ele>362.07373</ele>
        <time>2011-02-20T09:22:18Z</time>
      </trkpt>
      <trkpt lat="44.48491" lon="5.02563">
        <ele>362.07373</ele>
        <time>2011-02-20T09:22:41Z</time>
      </trkpt>
      <trkpt lat="44.48512" lon="5.02571">
        <ele>361.112427</ele>
        <time>2011-02-20T09:22:59Z</time>
      </trkpt>
      <trkpt lat="44.48535" lon="5.02586">
        <ele>360.631714</ele>
        <time>2011-02-20T09:23:18Z</time>
      </trkpt>
      <trkpt lat="44.48559" lon="5.02606">
        <ele>359.67041</ele>
        <time>2011-02-20T09:23:42Z</time>
      </trkpt>
      <trkpt lat="44.4858" lon="5.02624">
        <ele>359.189697</ele>
        <time>2011-02-20T09:24:02Z</time>
      </trkpt>
      <trkpt lat="44.48602" lon="5.0265">
        <ele>358.708984</ele>
        <time>2011-02-20T09:24:26Z</time>
      </trkpt>
      <trkpt lat="44.48615" lon="5.02667">
        <ele>358.708984</ele>
        <time>2011-02-20T09:24:41Z</time>
      </trkpt>
      <trkpt lat="44.48627" lon="5.02684">
        <ele>358.228394</ele>
        <time>2011-02-20T09:24:55Z</time>
      </trkpt>
      <trkpt lat="44.48631" lon="5.02688">
        <ele>358.228394</ele>
        <time>2011-02-20T09:24:58Z</time>
      </trkpt>
      <trkpt lat="44.48657" lon="5.027">
        <ele>357.747803</ele>
        <time>2011-02-20T09:25:21Z</time>
      </trkpt>
      <trkpt lat="44.48691" lon="5.02721">
        <ele>357.26709</ele>
        <time>2011-02-20T09:25:51Z</time>
      </trkpt>
      <trkpt lat="44.48713" lon="5.02737">
        <ele>356.786377</ele>
        <time>2011-02-20T09:26:12Z</time>
      </trkpt>
      <trkpt lat="44.48748" lon="5.02759">
        <ele>357.26709</ele>
        <time>2011-02-20T09:26:41Z</time>
      </trkpt>
      <trkpt lat="44.48778" lon="5.02778">
        <ele>357.26709</ele>
        <time>2011-02-20T09:27:09Z</time>
      </trkpt>
      <trkpt lat="44.48791" lon="5.02788">
        <ele>357.26709</ele>
        <time>2011-02-20T09:27:21Z</time>
      </trkpt>
      <trkpt lat="44.48816" lon="5.02806">
        <ele>357.26709</ele>
        <time>2011-02-20T09:27:43Z</time>
      </trkpt>
      <trkpt lat="44.48826" lon="5.02811">
        <ele>357.26709</ele>
        <time>2011-02-20T09:27:52Z</time>
      </trkpt>
      <trkpt lat="44.48836" lon="5.02812">
        <ele>357.26709</ele>
        <time>2011-02-20T09:28:00Z</time>
      </trkpt>
      <trkpt lat="44.48843" lon="5.02811">
        <ele>357.26709</ele>
        <time>2011-02-20T09:28:07Z</time>
      </trkpt>
      <trkpt lat="44.48854" lon="5.02839">
        <ele>357.26709</ele>
        <time>2011-02-20T09:28:25Z</time>
      </trkpt>
      <trkpt lat="44.4887" lon="5.02865">
        <ele>357.747803</ele>
        <time>2011-02-20T09:28:44Z</time>
      </trkpt>
      <trkpt lat="44.48891" lon="5.02884">
        <ele>358.708984</ele>
        <time>2011-02-20T09:29:05Z</time>
      </trkpt>
      <trkpt lat="44.48909" lon="5.02903">
        <ele>359.189697</ele>
        <time>2011-02-20T09:29:25Z</time>
      </trkpt>
      <trkpt lat="44.48937" lon="5.02929">
        <ele>359.67041</ele>
        <time>2011-02-20T09:29:53Z</time>
      </trkpt>
      <trkpt lat="44.48961" lon="5.02963">
        <ele>360.631714</ele>
        <time>2011-02-20T09:30:21Z</time>
      </trkpt>
      <trkpt lat="44.4898" lon="5.02997">
        <ele>360.631714</ele>
        <time>2011-02-20T09:30:46Z</time>
      </trkpt>
      <trkpt lat="44.48996" lon="5.03024">
        <ele>361.59314</ele>
        <time>2011-02-20T09:31:07Z</time>
      </trkpt>
      <trkpt lat="44.4902" lon="5.03056">
        <ele>361.59314</ele>
        <time>2011-02-20T09:31:33Z</time>
      </trkpt>
      <trkpt lat="44.49052" lon="5.03053">
        <ele>362.554321</ele>
        <time>2011-02-20T09:32:01Z</time>
      </trkpt>
      <trkpt lat="44.49082" lon="5.0303">
        <ele>363.515747</ele>
        <time>2011-02-20T09:32:29Z</time>
      </trkpt>
      <trkpt lat="44.4911" lon="5.03006">
        <ele>365.438354</ele>
        <time>2011-02-20T09:32:57Z</time>
      </trkpt>
      <trkpt lat="44.49135" lon="5.02983">
        <ele>366.880249</ele>
        <time>2011-02-20T09:33:24Z</time>
      </trkpt>
      <trkpt lat="44.49147" lon="5.02976">
        <ele>367.841553</ele>
        <time>2011-02-20T09:33:40Z</time>
      </trkpt>
      <trkpt lat="44.49173" lon="5.02965">
        <ele>368.802979</ele>
        <time>2011-02-20T09:34:00Z</time>
      </trkpt>
      <trkpt lat="44.49187" lon="5.0297">
        <ele>369.283691</ele>
        <time>2011-02-20T09:34:11Z</time>
      </trkpt>
      <trkpt lat="44.49215" lon="5.02985">
        <ele>369.764282</ele>
        <time>2011-02-20T09:34:33Z</time>
      </trkpt>
      <trkpt lat="44.49234" lon="5.02994">
        <ele>370.244873</ele>
        <time>2011-02-20T09:34:52Z</time>
      </trkpt>
      <trkpt lat="44.49248" lon="5.03002">
        <ele>370.725586</ele>
        <time>2011-02-20T09:35:04Z</time>
      </trkpt>
      <trkpt lat="44.49268" lon="5.03014">
        <ele>371.206299</ele>
        <time>2011-02-20T09:35:21Z</time>
      </trkpt>
      <trkpt lat="44.4929" lon="5.03024">
        <ele>371.68689</ele>
        <time>2011-02-20T09:35:41Z</time>
      </trkpt>
      <trkpt lat="44.49315" lon="5.03038">
        <ele>373.609497</ele>
        <time>2011-02-20T09:36:04Z</time>
      </trkpt>
      <trkpt lat="44.49328" lon="5.03051">
        <ele>374.570801</ele>
        <time>2011-02-20T09:36:19Z</time>
      </trkpt>
      <trkpt lat="44.49339" lon="5.03062">
        <ele>375.051514</ele>
        <time>2011-02-20T09:36:30Z</time>
      </trkpt>
      <trkpt lat="44.49359" lon="5.03087">
        <ele>376.49353</ele>
        <time>2011-02-20T09:36:53Z</time>
      </trkpt>
      <trkpt lat="44.49371" lon="5.03099">
        <ele>377.454834</ele>
        <time>2011-02-20T09:37:13Z</time>
      </trkpt>
      <trkpt lat="44.49371" lon="5.03099">
        <ele>377.454834</ele>
        <time>2011-02-20T09:37:15Z</time>
      </trkpt>
      <trkpt lat="44.49369" lon="5.03095">
        <ele>377.454834</ele>
        <time>2011-02-20T09:37:24Z</time>
      </trkpt>
      <trkpt lat="44.49372" lon="5.03094">
        <ele>377.454834</ele>
        <time>2011-02-20T09:37:36Z</time>
      </trkpt>
      <trkpt lat="44.49374" lon="5.03096">
        <ele>377.454834</ele>
        <time>2011-02-20T09:37:58Z</time>
      </trkpt>
      <trkpt lat="44.49373" lon="5.03095">
        <ele>376.974243</ele>
        <time>2011-02-20T09:39:06Z</time>
      </trkpt>
      <trkpt lat="44.49374" lon="5.03095">
        <ele>373.128906</ele>
        <time>2011-02-20T09:40:41Z</time>
      </trkpt>
      <trkpt lat="44.49374" lon="5.03095">
        <ele>377.454834</ele>
        <time>2011-02-20T09:40:43Z</time>
      </trkpt>
      <trkpt lat="44.49375" lon="5.03094">
        <ele>376.974243</ele>
        <time>2011-02-20T09:40:44Z</time>
      </trkpt>
      <trkpt lat="44.49376" lon="5.03091">
        <ele>376.49353</ele>
        <time>2011-02-20T09:41:00Z</time>
      </trkpt>
      <trkpt lat="44.49378" lon="5.03091">
        <ele>376.012817</ele>
        <time>2011-02-20T09:41:02Z</time>
      </trkpt>
      <trkpt lat="44.49388" lon="5.03084">
        <ele>374.570801</ele>
        <time>2011-02-20T09:41:14Z</time>
      </trkpt>
      <trkpt lat="44.4939" lon="5.03079">
        <ele>373.609497</ele>
        <time>2011-02-20T09:41:18Z</time>
      </trkpt>
      <trkpt lat="44.49397" lon="5.03072">
        <ele>372.16748</ele>
        <time>2011-02-20T09:41:26Z</time>
      </trkpt>
      <trkpt lat="44.49407" lon="5.03065">
        <ele>370.725586</ele>
        <time>2011-02-20T09:41:37Z</time>
      </trkpt>
      <trkpt lat="44.4941" lon="5.03066">
        <ele>370.244873</ele>
        <time>2011-02-20T09:41:39Z</time>
      </trkpt>
      <trkpt lat="44.49423" lon="5.0309">
        <ele>371.206299</ele>
        <time>2011-02-20T09:41:55Z</time>
      </trkpt>
      <trkpt lat="44.49426" lon="5.03107">
        <ele>372.648193</ele>
        <time>2011-02-20T09:42:08Z</time>
      </trkpt>
      <trkpt lat="44.49431" lon="5.03128">
        <ele>375.532104</ele>
        <time>2011-02-20T09:42:25Z</time>
      </trkpt>
      <trkpt lat="44.49438" lon="5.03145">
        <ele>378.896851</ele>
        <time>2011-02-20T09:42:43Z</time>
      </trkpt>
      <trkpt lat="44.49451" lon="5.03161">
        <ele>381.300049</ele>
        <time>2011-02-20T09:43:03Z</time>
      </trkpt>
      <trkpt lat="44.4946" lon="5.03163">
        <ele>382.742065</ele>
        <time>2011-02-20T09:43:13Z</time>
      </trkpt>
      <trkpt lat="44.49476" lon="5.03151">
        <ele>386.106689</ele>
        <time>2011-02-20T09:43:34Z</time>
      </trkpt>
      <trkpt lat="44.49492" lon="5.03138">
        <ele>388.990601</ele>
        <time>2011-02-20T09:43:55Z</time>
      </trkpt>
      <trkpt lat="44.49512" lon="5.0313">
        <ele>391.874512</ele>
        <time>2011-02-20T09:44:17Z</time>
      </trkpt>
      <trkpt lat="44.49527" lon="5.03125">
        <ele>395.239136</ele>
        <time>2011-02-20T09:44:38Z</time>
      </trkpt>
      <trkpt lat="44.49544" lon="5.03122">
        <ele>398.123169</ele>
        <time>2011-02-20T09:44:59Z</time>
      </trkpt>
      <trkpt lat="44.49557" lon="5.03122">
        <ele>400.526489</ele>
        <time>2011-02-20T09:45:15Z</time>
      </trkpt>
      <trkpt lat="44.4957" lon="5.03122">
        <ele>402.449097</ele>
        <time>2011-02-20T09:45:32Z</time>
      </trkpt>
      <trkpt lat="44.49573" lon="5.03109">
        <ele>404.371704</ele>
        <time>2011-02-20T09:45:45Z</time>
      </trkpt>
      <trkpt lat="44.49573" lon="5.03091">
        <ele>406.774902</ele>
        <time>2011-02-20T09:46:03Z</time>
      </trkpt>
      <trkpt lat="44.49575" lon="5.03079">
        <ele>409.178345</ele>
        <time>2011-02-20T09:46:16Z</time>
      </trkpt>
      <trkpt lat="44.49575" lon="5.03066">
        <ele>412.542847</ele>
        <time>2011-02-20T09:46:32Z</time>
      </trkpt>
      <trkpt lat="44.49577" lon="5.03053">
        <ele>414.946167</ele>
        <time>2011-02-20T09:46:47Z</time>
      </trkpt>
      <trkpt lat="44.49583" lon="5.03044">
        <ele>416.868896</ele>
        <time>2011-02-20T09:47:01Z</time>
      </trkpt>
      <trkpt lat="44.49586" lon="5.03038">
        <ele>418.310791</ele>
        <time>2011-02-20T09:47:09Z</time>
      </trkpt>
      <trkpt lat="44.49591" lon="5.03028">
        <ele>420.233398</ele>
        <time>2011-02-20T09:47:21Z</time>
      </trkpt>
      <trkpt lat="44.49594" lon="5.03021">
        <ele>421.194824</ele>
        <time>2011-02-20T09:47:28Z</time>
      </trkpt>
      <trkpt lat="44.49603" lon="5.03002">
        <ele>422.156006</ele>
        <time>2011-02-20T09:47:44Z</time>
      </trkpt>
      <trkpt lat="44.49605" lon="5.03">
        <ele>422.156006</ele>
        <time>2011-02-20T09:47:47Z</time>
      </trkpt>
      <trkpt lat="44.49615" lon="5.02979">
        <ele>423.598022</ele>
        <time>2011-02-20T09:48:05Z</time>
      </trkpt>
      <trkpt lat="44.49623" lon="5.02959">
        <ele>426.001343</ele>
        <time>2011-02-20T09:48:24Z</time>
      </trkpt>
      <trkpt lat="44.49628" lon="5.02939">
        <ele>428.885376</ele>
        <time>2011-02-20T09:48:45Z</time>
      </trkpt>
      <trkpt lat="44.4963" lon="5.02922">
        <ele>432.25</ele>
        <time>2011-02-20T09:49:01Z</time>
      </trkpt>
      <trkpt lat="44.49633" lon="5.02904">
        <ele>433.211304</ele>
        <time>2011-02-20T09:49:17Z</time>
      </trkpt>
      <trkpt lat="44.49634" lon="5.02888">
        <ele>433.691895</ele>
        <time>2011-02-20T09:49:33Z</time>
      </trkpt>
      <trkpt lat="44.49627" lon="5.02892">
        <ele>434.172607</ele>
        <time>2011-02-20T09:49:47Z</time>
      </trkpt>
      <trkpt lat="44.49626" lon="5.02893">
        <ele>434.172607</ele>
        <time>2011-02-20T09:49:48Z</time>
      </trkpt>
      <trkpt lat="44.49623" lon="5.02898">
        <ele>434.172607</ele>
        <time>2011-02-20T09:49:53Z</time>
      </trkpt>
      <trkpt lat="44.49607" lon="5.02915">
        <ele>435.133911</ele>
        <time>2011-02-20T09:50:15Z</time>
      </trkpt>
      <trkpt lat="44.49605" lon="5.02915">
        <ele>434.65332</ele>
        <time>2011-02-20T09:50:17Z</time>
      </trkpt>
      <trkpt lat="44.49587" lon="5.02916">
        <ele>433.211304</ele>
        <time>2011-02-20T09:50:37Z</time>
      </trkpt>
      <trkpt lat="44.49587" lon="5.02917">
        <ele>433.691895</ele>
        <time>2011-02-20T09:50:38Z</time>
      </trkpt>
      <trkpt lat="44.4958" lon="5.02922">
        <ele>434.172607</ele>
        <time>2011-02-20T09:50:46Z</time>
      </trkpt>
      <trkpt lat="44.49575" lon="5.02941">
        <ele>433.691895</ele>
        <time>2011-02-20T09:51:05Z</time>
      </trkpt>
      <trkpt lat="44.49575" lon="5.02955">
        <ele>433.211304</ele>
        <time>2011-02-20T09:51:24Z</time>
      </trkpt>
      <trkpt lat="44.49572" lon="5.02956">
        <ele>433.691895</ele>
        <time>2011-02-20T09:51:50Z</time>
      </trkpt>
      <trkpt lat="44.49571" lon="5.02959">
        <ele>433.211304</ele>
        <time>2011-02-20T09:53:09Z</time>
      </trkpt>
      <trkpt lat="44.49571" lon="5.02956">
        <ele>432.730713</ele>
        <time>2011-02-20T09:55:02Z</time>
      </trkpt>
      <trkpt lat="44.49576" lon="5.02924">
        <ele>433.211304</ele>
        <time>2011-02-20T09:55:22Z</time>
      </trkpt>
      <trkpt lat="44.49587" lon="5.02914">
        <ele>432.730713</ele>
        <time>2011-02-20T09:55:36Z</time>
      </trkpt>
      <trkpt lat="44.49602" lon="5.02913">
        <ele>433.691895</ele>
        <time>2011-02-20T09:55:49Z</time>
      </trkpt>
      <trkpt lat="44.49616" lon="5.0291">
        <ele>434.172607</ele>
        <time>2011-02-20T09:56:07Z</time>
      </trkpt>
      <trkpt lat="44.49617" lon="5.02909">
        <ele>434.172607</ele>
        <time>2011-02-20T09:56:50Z</time>
      </trkpt>
      <trkpt lat="44.49619" lon="5.02904">
        <ele>433.211304</ele>
        <time>2011-02-20T09:56:54Z</time>
      </trkpt>
      <trkpt lat="44.49623" lon="5.02898">
        <ele>433.691895</ele>
        <time>2011-02-20T09:56:59Z</time>
      </trkpt>
      <trkpt lat="44.49626" lon="5.02894">
        <ele>433.211304</ele>
        <time>2011-02-20T09:57:03Z</time>
      </trkpt>
      <trkpt lat="44.49631" lon="5.0289">
        <ele>433.211304</ele>
        <time>2011-02-20T09:57:07Z</time>
      </trkpt>
      <trkpt lat="44.49651" lon="5.02862">
        <ele>433.691895</ele>
        <time>2011-02-20T09:57:31Z</time>
      </trkpt>
      <trkpt lat="44.4966" lon="5.02856">
        <ele>434.172607</ele>
        <time>2011-02-20T09:57:41Z</time>
      </trkpt>
      <trkpt lat="44.49669" lon="5.02868">
        <ele>436.095215</ele>
        <time>2011-02-20T09:57:57Z</time>
      </trkpt>
      <trkpt lat="44.49678" lon="5.02873">
        <ele>437.537109</ele>
        <time>2011-02-20T09:58:13Z</time>
      </trkpt>
      <trkpt lat="44.49681" lon="5.02871">
        <ele>438.498535</ele>
        <time>2011-02-20T09:58:16Z</time>
      </trkpt>
      <trkpt lat="44.49697" lon="5.02866">
        <ele>441.382446</ele>
        <time>2011-02-20T09:58:35Z</time>
      </trkpt>
      <trkpt lat="44.4971" lon="5.02861">
        <ele>443.785767</ele>
        <time>2011-02-20T09:58:53Z</time>
      </trkpt>
      <trkpt lat="44.49722" lon="5.02846">
        <ele>446.669678</ele>
        <time>2011-02-20T09:59:13Z</time>
      </trkpt>
      <trkpt lat="44.49734" lon="5.0283">
        <ele>449.072998</ele>
        <time>2011-02-20T09:59:34Z</time>
      </trkpt>
      <trkpt lat="44.4974" lon="5.02824">
        <ele>450.995605</ele>
        <time>2011-02-20T09:59:47Z</time>
      </trkpt>
      <trkpt lat="44.49743" lon="5.028">
        <ele>453.398926</ele>
        <time>2011-02-20T10:00:08Z</time>
      </trkpt>
      <trkpt lat="44.49744" lon="5.02779">
        <ele>456.282959</ele>
        <time>2011-02-20T10:00:27Z</time>
      </trkpt>
      <trkpt lat="44.49748" lon="5.02766">
        <ele>457.244263</ele>
        <time>2011-02-20T10:00:45Z</time>
      </trkpt>
      <trkpt lat="44.49749" lon="5.02762">
        <ele>456.282959</ele>
        <time>2011-02-20T10:00:49Z</time>
      </trkpt>
      <trkpt lat="44.49751" lon="5.02758">
        <ele>455.321533</ele>
        <time>2011-02-20T10:00:52Z</time>
      </trkpt>
      <trkpt lat="44.49747" lon="5.02737">
        <ele>458.205566</ele>
        <time>2011-02-20T10:01:11Z</time>
      </trkpt>
      <trkpt lat="44.49752" lon="5.02718">
        <ele>460.128174</ele>
        <time>2011-02-20T10:01:30Z</time>
      </trkpt>
      <trkpt lat="44.49749" lon="5.02702">
        <ele>461.57019</ele>
        <time>2011-02-20T10:01:47Z</time>
      </trkpt>
      <trkpt lat="44.49748" lon="5.02683">
        <ele>464.454102</ele>
        <time>2011-02-20T10:02:04Z</time>
      </trkpt>
      <trkpt lat="44.49751" lon="5.02667">
        <ele>467.818726</ele>
        <time>2011-02-20T10:02:21Z</time>
      </trkpt>
      <trkpt lat="44.49755" lon="5.02643">
        <ele>469.741333</ele>
        <time>2011-02-20T10:02:42Z</time>
      </trkpt>
      <trkpt lat="44.49755" lon="5.02634">
        <ele>470.221924</ele>
        <time>2011-02-20T10:02:49Z</time>
      </trkpt>
      <trkpt lat="44.49764" lon="5.02616">
        <ele>472.144653</ele>
        <time>2011-02-20T10:03:08Z</time>
      </trkpt>
      <trkpt lat="44.49771" lon="5.02601">
        <ele>474.067261</ele>
        <time>2011-02-20T10:03:26Z</time>
      </trkpt>
      <trkpt lat="44.4978" lon="5.02577">
        <ele>474.547974</ele>
        <time>2011-02-20T10:03:44Z</time>
      </trkpt>
      <trkpt lat="44.49783" lon="5.02555">
        <ele>475.028687</ele>
        <time>2011-02-20T10:03:58Z</time>
      </trkpt>
      <trkpt lat="44.49787" lon="5.02546">
        <ele>475.509277</ele>
        <time>2011-02-20T10:04:05Z</time>
      </trkpt>
      <trkpt lat="44.49793" lon="5.02535">
        <ele>475.989868</ele>
        <time>2011-02-20T10:04:17Z</time>
      </trkpt>
      <trkpt lat="44.49799" lon="5.02531">
        <ele>474.067261</ele>
        <time>2011-02-20T10:04:54Z</time>
      </trkpt>
      <trkpt lat="44.49794" lon="5.02527">
        <ele>476.470581</ele>
        <time>2011-02-20T10:05:03Z</time>
      </trkpt>
      <trkpt lat="44.4979" lon="5.02525">
        <ele>476.951294</ele>
        <time>2011-02-20T10:05:08Z</time>
      </trkpt>
      <trkpt lat="44.49778" lon="5.0252">
        <ele>479.835083</ele>
        <time>2011-02-20T10:05:25Z</time>
      </trkpt>
      <trkpt lat="44.49768" lon="5.02518">
        <ele>483.199829</ele>
        <time>2011-02-20T10:05:42Z</time>
      </trkpt>
      <trkpt lat="44.49759" lon="5.02521">
        <ele>484.161133</ele>
        <time>2011-02-20T10:05:56Z</time>
      </trkpt>
      <trkpt lat="44.49755" lon="5.02517">
        <ele>485.122437</ele>
        <time>2011-02-20T10:06:10Z</time>
      </trkpt>
      <trkpt lat="44.4974" lon="5.02506">
        <ele>488.00647</ele>
        <time>2011-02-20T10:06:35Z</time>
      </trkpt>
      <trkpt lat="44.49733" lon="5.02501">
        <ele>485.122437</ele>
        <time>2011-02-20T10:06:51Z</time>
      </trkpt>
      <trkpt lat="44.49732" lon="5.02492">
        <ele>482.719238</ele>
        <time>2011-02-20T10:07:07Z</time>
      </trkpt>
      <trkpt lat="44.4974" lon="5.02475">
        <ele>479.354492</ele>
        <time>2011-02-20T10:07:23Z</time>
      </trkpt>
      <trkpt lat="44.49742" lon="5.02465">
        <ele>476.951294</ele>
        <time>2011-02-20T10:07:38Z</time>
      </trkpt>
      <trkpt lat="44.49743" lon="5.0246">
        <ele>475.509277</ele>
        <time>2011-02-20T10:08:09Z</time>
      </trkpt>
      <trkpt lat="44.49739" lon="5.02457">
        <ele>475.509277</ele>
        <time>2011-02-20T10:09:00Z</time>
      </trkpt>
      <trkpt lat="44.49735" lon="5.02457">
        <ele>475.989868</ele>
        <time>2011-02-20T10:09:22Z</time>
      </trkpt>
      <trkpt lat="44.49726" lon="5.02451">
        <ele>478.873901</ele>
        <time>2011-02-20T10:09:35Z</time>
      </trkpt>
      <trkpt lat="44.49722" lon="5.02439">
        <ele>481.277222</ele>
        <time>2011-02-20T10:09:52Z</time>
      </trkpt>
      <trkpt lat="44.49721" lon="5.02429">
        <ele>481.277222</ele>
        <time>2011-02-20T10:10:07Z</time>
      </trkpt>
      <trkpt lat="44.49717" lon="5.02413">
        <ele>481.277222</ele>
        <time>2011-02-20T10:10:22Z</time>
      </trkpt>
      <trkpt lat="44.49708" lon="5.02405">
        <ele>480.315918</ele>
        <time>2011-02-20T10:10:38Z</time>
      </trkpt>
      <trkpt lat="44.49693" lon="5.02399">
        <ele>480.315918</ele>
        <time>2011-02-20T10:10:53Z</time>
      </trkpt>
      <trkpt lat="44.49689" lon="5.02383">
        <ele>481.757813</ele>
        <time>2011-02-20T10:11:08Z</time>
      </trkpt>
      <trkpt lat="44.49693" lon="5.02369">
        <ele>483.68042</ele>
        <time>2011-02-20T10:11:26Z</time>
      </trkpt>
      <trkpt lat="44.49692" lon="5.02368">
        <ele>483.68042</ele>
        <time>2011-02-20T10:11:51Z</time>
      </trkpt>
      <trkpt lat="44.49695" lon="5.02349">
        <ele>485.122437</ele>
        <time>2011-02-20T10:12:18Z</time>
      </trkpt>
      <trkpt lat="44.49697" lon="5.02337">
        <ele>486.08374</ele>
        <time>2011-02-20T10:12:28Z</time>
      </trkpt>
      <trkpt lat="44.49704" lon="5.02318">
        <ele>487.045044</ele>
        <time>2011-02-20T10:12:43Z</time>
      </trkpt>
      <trkpt lat="44.49714" lon="5.02299">
        <ele>488.00647</ele>
        <time>2011-02-20T10:13:01Z</time>
      </trkpt>
      <trkpt lat="44.49723" lon="5.02279">
        <ele>488.487183</ele>
        <time>2011-02-20T10:13:18Z</time>
      </trkpt>
      <trkpt lat="44.49732" lon="5.02245">
        <ele>488.487183</ele>
        <time>2011-02-20T10:13:43Z</time>
      </trkpt>
      <trkpt lat="44.4974" lon="5.02227">
        <ele>487.525635</ele>
        <time>2011-02-20T10:14:00Z</time>
      </trkpt>
      <trkpt lat="44.49743" lon="5.02216">
        <ele>486.08374</ele>
        <time>2011-02-20T10:14:18Z</time>
      </trkpt>
      <trkpt lat="44.49742" lon="5.02199">
        <ele>485.603027</ele>
        <time>2011-02-20T10:14:27Z</time>
      </trkpt>
      <trkpt lat="44.49745" lon="5.02185">
        <ele>487.525635</ele>
        <time>2011-02-20T10:14:39Z</time>
      </trkpt>
      <trkpt lat="44.49746" lon="5.02178">
        <ele>488.487183</ele>
        <time>2011-02-20T10:14:43Z</time>
      </trkpt>
      <trkpt lat="44.49745" lon="5.02157">
        <ele>491.370972</ele>
        <time>2011-02-20T10:14:59Z</time>
      </trkpt>
      <trkpt lat="44.49745" lon="5.02139">
        <ele>493.774292</ele>
        <time>2011-02-20T10:15:15Z</time>
      </trkpt>
      <trkpt lat="44.49749" lon="5.0212">
        <ele>496.177734</ele>
        <time>2011-02-20T10:15:33Z</time>
      </trkpt>
      <trkpt lat="44.49754" lon="5.02102">
        <ele>498.100342</ele>
        <time>2011-02-20T10:15:51Z</time>
      </trkpt>
      <trkpt lat="44.4976" lon="5.02085">
        <ele>500.022949</ele>
        <time>2011-02-20T10:16:09Z</time>
      </trkpt>
      <trkpt lat="44.49766" lon="5.02076">
        <ele>501.464844</ele>
        <time>2011-02-20T10:16:24Z</time>
      </trkpt>
      <trkpt lat="44.49767" lon="5.02076">
        <ele>501.464844</ele>
        <time>2011-02-20T10:16:25Z</time>
      </trkpt>
      <trkpt lat="44.49779" lon="5.02065">
        <ele>502.906738</ele>
        <time>2011-02-20T10:16:42Z</time>
      </trkpt>
      <trkpt lat="44.4979" lon="5.02063">
        <ele>505.310181</ele>
        <time>2011-02-20T10:17:00Z</time>
      </trkpt>
      <trkpt lat="44.49799" lon="5.02057">
        <ele>507.232788</ele>
        <time>2011-02-20T10:17:18Z</time>
      </trkpt>
      <trkpt lat="44.49808" lon="5.02044">
        <ele>510.116699</ele>
        <time>2011-02-20T10:17:38Z</time>
      </trkpt>
      <trkpt lat="44.49816" lon="5.02024">
        <ele>513.481445</ele>
        <time>2011-02-20T10:17:57Z</time>
      </trkpt>
      <trkpt lat="44.49816" lon="5.0202">
        <ele>513.962036</ele>
        <time>2011-02-20T10:18:00Z</time>
      </trkpt>
      <trkpt lat="44.4982" lon="5.01998">
        <ele>515.404053</ele>
        <time>2011-02-20T10:18:17Z</time>
      </trkpt>
      <trkpt lat="44.49826" lon="5.01967">
        <ele>517.32666</ele>
        <time>2011-02-20T10:18:40Z</time>
      </trkpt>
      <trkpt lat="44.49833" lon="5.01934">
        <ele>518.768555</ele>
        <time>2011-02-20T10:19:06Z</time>
      </trkpt>
      <trkpt lat="44.49845" lon="5.019">
        <ele>519.729858</ele>
        <time>2011-02-20T10:19:31Z</time>
      </trkpt>
      <trkpt lat="44.49849" lon="5.01894">
        <ele>519.729858</ele>
        <time>2011-02-20T10:19:37Z</time>
      </trkpt>
      <trkpt lat="44.49847" lon="5.01871">
        <ele>520.691284</ele>
        <time>2011-02-20T10:19:52Z</time>
      </trkpt>
      <trkpt lat="44.49833" lon="5.01849">
        <ele>523.575195</ele>
        <time>2011-02-20T10:20:13Z</time>
      </trkpt>
      <trkpt lat="44.49826" lon="5.01843">
        <ele>523.575195</ele>
        <time>2011-02-20T10:20:22Z</time>
      </trkpt>
      <trkpt lat="44.49806" lon="5.01841">
        <ele>521.171997</ele>
        <time>2011-02-20T10:20:43Z</time>
      </trkpt>
      <trkpt lat="44.49796" lon="5.01828">
        <ele>520.691284</ele>
        <time>2011-02-20T10:20:59Z</time>
      </trkpt>
      <trkpt lat="44.49801" lon="5.01802">
        <ele>523.094604</ele>
        <time>2011-02-20T10:21:21Z</time>
      </trkpt>
      <trkpt lat="44.49805" lon="5.01787">
        <ele>524.536499</ele>
        <time>2011-02-20T10:21:41Z</time>
      </trkpt>
      <trkpt lat="44.49803" lon="5.0177">
        <ele>525.978394</ele>
        <time>2011-02-20T10:21:58Z</time>
      </trkpt>
      <trkpt lat="44.49806" lon="5.01749">
        <ele>527.901001</ele>
        <time>2011-02-20T10:22:18Z</time>
      </trkpt>
      <trkpt lat="44.49814" lon="5.01747">
        <ele>528.381836</ele>
        <time>2011-02-20T10:22:32Z</time>
      </trkpt>
      <trkpt lat="44.4982" lon="5.01754">
        <ele>528.862549</ele>
        <time>2011-02-20T10:22:47Z</time>
      </trkpt>
      <trkpt lat="44.49818" lon="5.01755">
        <ele>528.381836</ele>
        <time>2011-02-20T10:23:19Z</time>
      </trkpt>
      <trkpt lat="44.49816" lon="5.01753">
        <ele>528.862549</ele>
        <time>2011-02-20T10:25:22Z</time>
      </trkpt>
      <trkpt lat="44.49814" lon="5.01752">
        <ele>528.862549</ele>
        <time>2011-02-20T10:25:40Z</time>
      </trkpt>
      <trkpt lat="44.49817" lon="5.01745">
        <ele>528.381836</ele>
        <time>2011-02-20T10:26:18Z</time>
      </trkpt>
      <trkpt lat="44.49811" lon="5.01735">
        <ele>528.862549</ele>
        <time>2011-02-20T10:26:39Z</time>
      </trkpt>
      <trkpt lat="44.49807" lon="5.01723">
        <ele>529.82373</ele>
        <time>2011-02-20T10:26:57Z</time>
      </trkpt>
      <trkpt lat="44.49805" lon="5.01722">
        <ele>529.82373</ele>
        <time>2011-02-20T10:27:18Z</time>
      </trkpt>
      <trkpt lat="44.49806" lon="5.01713">
        <ele>530.304443</ele>
        <time>2011-02-20T10:27:38Z</time>
      </trkpt>
      <trkpt lat="44.49803" lon="5.01697">
        <ele>531.265747</ele>
        <time>2011-02-20T10:27:51Z</time>
      </trkpt>
      <trkpt lat="44.49795" lon="5.01669">
        <ele>532.227051</ele>
        <time>2011-02-20T10:28:14Z</time>
      </trkpt>
      <trkpt lat="44.49794" lon="5.01631">
        <ele>532.707764</ele>
        <time>2011-02-20T10:28:40Z</time>
      </trkpt>
      <trkpt lat="44.49785" lon="5.0159">
        <ele>534.149658</ele>
        <time>2011-02-20T10:29:07Z</time>
      </trkpt>
      <trkpt lat="44.49777" lon="5.0156">
        <ele>535.591553</ele>
        <time>2011-02-20T10:29:29Z</time>
      </trkpt>
      <trkpt lat="44.49783" lon="5.01538">
        <ele>533.668945</ele>
        <time>2011-02-20T10:29:45Z</time>
      </trkpt>
      <trkpt lat="44.49788" lon="5.01527">
        <ele>532.707764</ele>
        <time>2011-02-20T10:29:55Z</time>
      </trkpt>
      <trkpt lat="44.49786" lon="5.01516">
        <ele>531.746338</ele>
        <time>2011-02-20T10:30:01Z</time>
      </trkpt>
      <trkpt lat="44.49781" lon="5.01515">
        <ele>532.707764</ele>
        <time>2011-02-20T10:30:07Z</time>
      </trkpt>
      <trkpt lat="44.49768" lon="5.01505">
        <ele>533.188354</ele>
        <time>2011-02-20T10:30:20Z</time>
      </trkpt>
      <trkpt lat="44.49766" lon="5.015">
        <ele>532.227051</ele>
        <time>2011-02-20T10:30:24Z</time>
      </trkpt>
      <trkpt lat="44.49762" lon="5.0149">
        <ele>531.265747</ele>
        <time>2011-02-20T10:30:31Z</time>
      </trkpt>
      <trkpt lat="44.4976" lon="5.01481">
        <ele>530.785156</ele>
        <time>2011-02-20T10:30:37Z</time>
      </trkpt>
      <trkpt lat="44.49754" lon="5.01478">
        <ele>530.304443</ele>
        <time>2011-02-20T10:30:41Z</time>
      </trkpt>
      <trkpt lat="44.49738" lon="5.01484">
        <ele>530.785156</ele>
        <time>2011-02-20T10:30:57Z</time>
      </trkpt>
      <trkpt lat="44.4973" lon="5.0148">
        <ele>531.746338</ele>
        <time>2011-02-20T10:31:10Z</time>
      </trkpt>
      <trkpt lat="44.49724" lon="5.01468">
        <ele>531.746338</ele>
        <time>2011-02-20T10:31:18Z</time>
      </trkpt>
      <trkpt lat="44.49711" lon="5.01448">
        <ele>532.227051</ele>
        <time>2011-02-20T10:31:36Z</time>
      </trkpt>
      <trkpt lat="44.49706" lon="5.01443">
        <ele>532.227051</ele>
        <time>2011-02-20T10:31:40Z</time>
      </trkpt>
      <trkpt lat="44.49692" lon="5.0143">
        <ele>533.668945</ele>
        <time>2011-02-20T10:31:54Z</time>
      </trkpt>
      <trkpt lat="44.49689" lon="5.01421">
        <ele>534.149658</ele>
        <time>2011-02-20T10:32:01Z</time>
      </trkpt>
      <trkpt lat="44.49685" lon="5.01414">
        <ele>535.591553</ele>
        <time>2011-02-20T10:32:07Z</time>
      </trkpt>
      <trkpt lat="44.49677" lon="5.01392">
        <ele>538.956299</ele>
        <time>2011-02-20T10:32:24Z</time>
      </trkpt>
      <trkpt lat="44.49668" lon="5.0138">
        <ele>539.917603</ele>
        <time>2011-02-20T10:32:35Z</time>
      </trkpt>
      <trkpt lat="44.49666" lon="5.01376">
        <ele>540.398315</ele>
        <time>2011-02-20T10:32:38Z</time>
      </trkpt>
      <trkpt lat="44.49658" lon="5.01354">
        <ele>540.398315</ele>
        <time>2011-02-20T10:32:55Z</time>
      </trkpt>
      <trkpt lat="44.49656" lon="5.01349">
        <ele>540.398315</ele>
        <time>2011-02-20T10:32:59Z</time>
      </trkpt>
      <trkpt lat="44.49649" lon="5.0132">
        <ele>540.398315</ele>
        <time>2011-02-20T10:33:16Z</time>
      </trkpt>
      <trkpt lat="44.49649" lon="5.01299">
        <ele>541.359497</ele>
        <time>2011-02-20T10:33:31Z</time>
      </trkpt>
      <trkpt lat="44.49651" lon="5.01288">
        <ele>541.84021</ele>
        <time>2011-02-20T10:33:39Z</time>
      </trkpt>
      <trkpt lat="44.49663" lon="5.0126">
        <ele>540.398315</ele>
        <time>2011-02-20T10:34:01Z</time>
      </trkpt>
      <trkpt lat="44.49664" lon="5.0125">
        <ele>539.917603</ele>
        <time>2011-02-20T10:34:08Z</time>
      </trkpt>
      <trkpt lat="44.49657" lon="5.01246">
        <ele>539.917603</ele>
        <time>2011-02-20T10:34:16Z</time>
      </trkpt>
      <trkpt lat="44.49635" lon="5.01242">
        <ele>541.359497</ele>
        <time>2011-02-20T10:34:35Z</time>
      </trkpt>
      <trkpt lat="44.49627" lon="5.01222">
        <ele>539.917603</ele>
        <time>2011-02-20T10:34:51Z</time>
      </trkpt>
      <trkpt lat="44.49629" lon="5.01185">
        <ele>538.956299</ele>
        <time>2011-02-20T10:35:12Z</time>
      </trkpt>
      <trkpt lat="44.49628" lon="5.01158">
        <ele>538.956299</ele>
        <time>2011-02-20T10:35:31Z</time>
      </trkpt>
      <trkpt lat="44.49629" lon="5.01134">
        <ele>539.43689</ele>
        <time>2011-02-20T10:35:45Z</time>
      </trkpt>
      <trkpt lat="44.49626" lon="5.01098">
        <ele>538.475708</ele>
        <time>2011-02-20T10:36:07Z</time>
      </trkpt>
      <trkpt lat="44.49628" lon="5.01083">
        <ele>538.475708</ele>
        <time>2011-02-20T10:36:15Z</time>
      </trkpt>
      <trkpt lat="44.49635" lon="5.01046">
        <ele>538.475708</ele>
        <time>2011-02-20T10:36:40Z</time>
      </trkpt>
      <trkpt lat="44.49637" lon="5.01022">
        <ele>538.475708</ele>
        <time>2011-02-20T10:36:56Z</time>
      </trkpt>
      <trkpt lat="44.49644" lon="5.01013">
        <ele>538.475708</ele>
        <time>2011-02-20T10:37:07Z</time>
      </trkpt>
      <trkpt lat="44.49644" lon="5.01008">
        <ele>538.475708</ele>
        <time>2011-02-20T10:37:10Z</time>
      </trkpt>
      <trkpt lat="44.49643" lon="5.00981">
        <ele>538.956299</ele>
        <time>2011-02-20T10:37:26Z</time>
      </trkpt>
      <trkpt lat="44.49645" lon="5.00945">
        <ele>539.43689</ele>
        <time>2011-02-20T10:37:47Z</time>
      </trkpt>
      <trkpt lat="44.49638" lon="5.00922">
        <ele>540.398315</ele>
        <time>2011-02-20T10:38:02Z</time>
      </trkpt>
      <trkpt lat="44.49624" lon="5.00892">
        <ele>542.320923</ele>
        <time>2011-02-20T10:38:26Z</time>
      </trkpt>
      <trkpt lat="44.49623" lon="5.00865">
        <ele>543.282104</ele>
        <time>2011-02-20T10:38:44Z</time>
      </trkpt>
      <trkpt lat="44.4963" lon="5.00837">
        <ele>545.204834</ele>
        <time>2011-02-20T10:39:04Z</time>
      </trkpt>
      <trkpt lat="44.49635" lon="5.00809">
        <ele>546.646851</ele>
        <time>2011-02-20T10:39:25Z</time>
      </trkpt>
      <trkpt lat="44.4964" lon="5.00785">
        <ele>548.088867</ele>
        <time>2011-02-20T10:39:42Z</time>
      </trkpt>
      <trkpt lat="44.4964" lon="5.00777">
        <ele>549.050049</ele>
        <time>2011-02-20T10:39:48Z</time>
      </trkpt>
      <trkpt lat="44.49642" lon="5.00748">
        <ele>550.492188</ele>
        <time>2011-02-20T10:40:08Z</time>
      </trkpt>
      <trkpt lat="44.49641" lon="5.00721">
        <ele>552.414551</ele>
        <time>2011-02-20T10:40:24Z</time>
      </trkpt>
      <trkpt lat="44.49641" lon="5.0072">
        <ele>552.414551</ele>
        <time>2011-02-20T10:40:25Z</time>
      </trkpt>
      <trkpt lat="44.49641" lon="5.00703">
        <ele>553.375977</ele>
        <time>2011-02-20T10:40:37Z</time>
      </trkpt>
      <trkpt lat="44.49641" lon="5.00671">
        <ele>556.26001</ele>
        <time>2011-02-20T10:41:00Z</time>
      </trkpt>
      <trkpt lat="44.49636" lon="5.00652">
        <ele>557.221436</ele>
        <time>2011-02-20T10:41:16Z</time>
      </trkpt>
      <trkpt lat="44.49633" lon="5.00643">
        <ele>558.182861</ele>
        <time>2011-02-20T10:41:25Z</time>
      </trkpt>
      <trkpt lat="44.49627" lon="5.00633">
        <ele>559.144043</ele>
        <time>2011-02-20T10:41:32Z</time>
      </trkpt>
      <trkpt lat="44.49613" lon="5.00614">
        <ele>560.105225</ele>
        <time>2011-02-20T10:41:50Z</time>
      </trkpt>
      <trkpt lat="44.49606" lon="5.00602">
        <ele>561.06665</ele>
        <time>2011-02-20T10:42:01Z</time>
      </trkpt>
      <trkpt lat="44.49597" lon="5.00585">
        <ele>561.547363</ele>
        <time>2011-02-20T10:42:17Z</time>
      </trkpt>
      <trkpt lat="44.4959" lon="5.00566">
        <ele>560.585938</ele>
        <time>2011-02-20T10:42:34Z</time>
      </trkpt>
      <trkpt lat="44.49582" lon="5.00536">
        <ele>559.144043</ele>
        <time>2011-02-20T10:42:54Z</time>
      </trkpt>
      <trkpt lat="44.49598" lon="5.00512">
        <ele>557.702148</ele>
        <time>2011-02-20T10:43:15Z</time>
      </trkpt>
      <trkpt lat="44.49609" lon="5.00499">
        <ele>557.702148</ele>
        <time>2011-02-20T10:43:28Z</time>
      </trkpt>
      <trkpt lat="44.49609" lon="5.00481">
        <ele>559.144043</ele>
        <time>2011-02-20T10:43:45Z</time>
      </trkpt>
      <trkpt lat="44.49606" lon="5.00482">
        <ele>559.144043</ele>
        <time>2011-02-20T10:43:49Z</time>
      </trkpt>
      <trkpt lat="44.49598" lon="5.00481">
        <ele>559.144043</ele>
        <time>2011-02-20T10:43:57Z</time>
      </trkpt>
      <trkpt lat="44.49592" lon="5.00461">
        <ele>559.624756</ele>
        <time>2011-02-20T10:44:15Z</time>
      </trkpt>
      <trkpt lat="44.4959" lon="5.00457">
        <ele>559.624756</ele>
        <time>2011-02-20T10:44:23Z</time>
      </trkpt>
      <trkpt lat="44.49583" lon="5.00434">
        <ele>559.624756</ele>
        <time>2011-02-20T10:44:41Z</time>
      </trkpt>
      <trkpt lat="44.49581" lon="5.00424">
        <ele>560.105225</ele>
        <time>2011-02-20T10:44:57Z</time>
      </trkpt>
      <trkpt lat="44.49577" lon="5.00409">
        <ele>561.06665</ele>
        <time>2011-02-20T10:45:24Z</time>
      </trkpt>
      <trkpt lat="44.49575" lon="5.00395">
        <ele>561.547363</ele>
        <time>2011-02-20T10:45:32Z</time>
      </trkpt>
      <trkpt lat="44.49574" lon="5.00388">
        <ele>561.547363</ele>
        <time>2011-02-20T10:45:36Z</time>
      </trkpt>
      <trkpt lat="44.49577" lon="5.00366">
        <ele>562.989258</ele>
        <time>2011-02-20T10:45:52Z</time>
      </trkpt>
      <trkpt lat="44.49601" lon="5.00331">
        <ele>562.989258</ele>
        <time>2011-02-20T10:46:23Z</time>
      </trkpt>
      <trkpt lat="44.49612" lon="5.00314">
        <ele>562.028076</ele>
        <time>2011-02-20T10:46:37Z</time>
      </trkpt>
      <trkpt lat="44.4961" lon="5.00305">
        <ele>562.028076</ele>
        <time>2011-02-20T10:46:44Z</time>
      </trkpt>
      <trkpt lat="44.49595" lon="5.00311">
        <ele>563.950439</ele>
        <time>2011-02-20T10:47:01Z</time>
      </trkpt>
      <trkpt lat="44.49589" lon="5.00309">
        <ele>564.911865</ele>
        <time>2011-02-20T10:47:09Z</time>
      </trkpt>
      <trkpt lat="44.49584" lon="5.00289">
        <ele>568.276367</ele>
        <time>2011-02-20T10:47:30Z</time>
      </trkpt>
      <trkpt lat="44.49598" lon="5.00283">
        <ele>571.640869</ele>
        <time>2011-02-20T10:47:49Z</time>
      </trkpt>
      <trkpt lat="44.49609" lon="5.00274">
        <ele>574.525146</ele>
        <time>2011-02-20T10:48:08Z</time>
      </trkpt>
      <trkpt lat="44.49617" lon="5.00265">
        <ele>577.889648</ele>
        <time>2011-02-20T10:48:32Z</time>
      </trkpt>
      <trkpt lat="44.49623" lon="5.00248">
        <ele>580.773682</ele>
        <time>2011-02-20T10:48:53Z</time>
      </trkpt>
      <trkpt lat="44.49632" lon="5.00234">
        <ele>583.176758</ele>
        <time>2011-02-20T10:49:13Z</time>
      </trkpt>
      <trkpt lat="44.49641" lon="5.00224">
        <ele>586.541504</ele>
        <time>2011-02-20T10:49:38Z</time>
      </trkpt>
      <trkpt lat="44.49631" lon="5.00212">
        <ele>589.425537</ele>
        <time>2011-02-20T10:49:59Z</time>
      </trkpt>
      <trkpt lat="44.49614" lon="5.00192">
        <ele>592.790283</ele>
        <time>2011-02-20T10:50:28Z</time>
      </trkpt>
      <trkpt lat="44.496" lon="5.0018">
        <ele>596.154785</ele>
        <time>2011-02-20T10:50:53Z</time>
      </trkpt>
      <trkpt lat="44.4959" lon="5.00176">
        <ele>599.038574</ele>
        <time>2011-02-20T10:51:19Z</time>
      </trkpt>
      <trkpt lat="44.49581" lon="5.00171">
        <ele>602.403076</ele>
        <time>2011-02-20T10:51:39Z</time>
      </trkpt>
      <trkpt lat="44.4957" lon="5.00148">
        <ele>605.287354</ele>
        <time>2011-02-20T10:52:11Z</time>
      </trkpt>
      <trkpt lat="44.49574" lon="5.00155">
        <ele>605.287354</ele>
        <time>2011-02-20T10:52:37Z</time>
      </trkpt>
      <trkpt lat="44.49563" lon="5.00147">
        <ele>608.171387</ele>
        <time>2011-02-20T10:53:11Z</time>
      </trkpt>
      <trkpt lat="44.49548" lon="5.00139">
        <ele>611.535889</ele>
        <time>2011-02-20T10:53:31Z</time>
      </trkpt>
      <trkpt lat="44.4953" lon="5.00131">
        <ele>614.419678</ele>
        <time>2011-02-20T10:53:52Z</time>
      </trkpt>
      <trkpt lat="44.49516" lon="5.0012">
        <ele>617.78418</ele>
        <time>2011-02-20T10:54:12Z</time>
      </trkpt>
      <trkpt lat="44.49495" lon="5.00109">
        <ele>620.668457</ele>
        <time>2011-02-20T10:54:41Z</time>
      </trkpt>
      <trkpt lat="44.49479" lon="5.00106">
        <ele>623.55249</ele>
        <time>2011-02-20T10:55:05Z</time>
      </trkpt>
      <trkpt lat="44.49462" lon="5.00104">
        <ele>626.916992</ele>
        <time>2011-02-20T10:55:28Z</time>
      </trkpt>
      <trkpt lat="44.49451" lon="5.00099">
        <ele>630.281494</ele>
        <time>2011-02-20T10:55:44Z</time>
      </trkpt>
      <trkpt lat="44.49442" lon="5.00098">
        <ele>632.684814</ele>
        <time>2011-02-20T10:55:53Z</time>
      </trkpt>
      <trkpt lat="44.4943" lon="5.00094">
        <ele>635.088135</ele>
        <time>2011-02-20T10:56:07Z</time>
      </trkpt>
      <trkpt lat="44.4942" lon="5.00081">
        <ele>638.452881</ele>
        <time>2011-02-20T10:56:21Z</time>
      </trkpt>
      <trkpt lat="44.49412" lon="5.00078">
        <ele>641.817383</ele>
        <time>2011-02-20T10:56:32Z</time>
      </trkpt>
      <trkpt lat="44.494" lon="5.00077">
        <ele>645.181885</ele>
        <time>2011-02-20T10:56:49Z</time>
      </trkpt>
      <trkpt lat="44.49386" lon="5.00072">
        <ele>648.546387</ele>
        <time>2011-02-20T10:57:08Z</time>
      </trkpt>
      <trkpt lat="44.49375" lon="5.00068">
        <ele>651.911133</ele>
        <time>2011-02-20T10:57:25Z</time>
      </trkpt>
      <trkpt lat="44.49364" lon="5.00069">
        <ele>653.353271</ele>
        <time>2011-02-20T10:57:57Z</time>
      </trkpt>
      <trkpt lat="44.49357" lon="5.00083">
        <ele>652.391846</ele>
        <time>2011-02-20T11:04:17Z</time>
      </trkpt>
      <trkpt lat="44.49348" lon="5.00096">
        <ele>649.507813</ele>
        <time>2011-02-20T11:04:37Z</time>
      </trkpt>
      <trkpt lat="44.49339" lon="5.00106">
        <ele>646.624023</ele>
        <time>2011-02-20T11:04:56Z</time>
      </trkpt>
      <trkpt lat="44.49335" lon="5.00114">
        <ele>645.662598</ele>
        <time>2011-02-20T11:05:03Z</time>
      </trkpt>
      <trkpt lat="44.4932" lon="5.00119">
        <ele>644.701172</ele>
        <time>2011-02-20T11:05:17Z</time>
      </trkpt>
      <trkpt lat="44.49304" lon="5.00129">
        <ele>641.817383</ele>
        <time>2011-02-20T11:05:34Z</time>
      </trkpt>
      <trkpt lat="44.49282" lon="5.00155">
        <ele>640.855957</ele>
        <time>2011-02-20T11:05:56Z</time>
      </trkpt>
      <trkpt lat="44.49262" lon="5.0017">
        <ele>640.375488</ele>
        <time>2011-02-20T11:06:14Z</time>
      </trkpt>
      <trkpt lat="44.49237" lon="5.0019">
        <ele>639.894775</ele>
        <time>2011-02-20T11:06:37Z</time>
      </trkpt>
      <trkpt lat="44.49211" lon="5.00207">
        <ele>640.375488</ele>
        <time>2011-02-20T11:07:01Z</time>
      </trkpt>
      <trkpt lat="44.49195" lon="5.0023">
        <ele>640.375488</ele>
        <time>2011-02-20T11:07:16Z</time>
      </trkpt>
      <trkpt lat="44.49174" lon="5.00244">
        <ele>639.414063</ele>
        <time>2011-02-20T11:07:36Z</time>
      </trkpt>
      <trkpt lat="44.49162" lon="5.00246">
        <ele>639.894775</ele>
        <time>2011-02-20T11:07:46Z</time>
      </trkpt>
      <trkpt lat="44.49154" lon="5.00249">
        <ele>641.817383</ele>
        <time>2011-02-20T11:07:55Z</time>
      </trkpt>
      <trkpt lat="44.49126" lon="5.00263">
        <ele>639.894775</ele>
        <time>2011-02-20T11:08:18Z</time>
      </trkpt>
      <trkpt lat="44.49109" lon="5.00278">
        <ele>639.894775</ele>
        <time>2011-02-20T11:08:35Z</time>
      </trkpt>
      <trkpt lat="44.49087" lon="5.00283">
        <ele>638.933594</ele>
        <time>2011-02-20T11:08:56Z</time>
      </trkpt>
      <trkpt lat="44.49077" lon="5.00298">
        <ele>636.530273</ele>
        <time>2011-02-20T11:09:11Z</time>
      </trkpt>
      <trkpt lat="44.49059" lon="5.00309">
        <ele>637.010742</ele>
        <time>2011-02-20T11:09:29Z</time>
      </trkpt>
      <trkpt lat="44.49038" lon="5.00321">
        <ele>639.894775</ele>
        <time>2011-02-20T11:09:50Z</time>
      </trkpt>
      <trkpt lat="44.49016" lon="5.00347">
        <ele>641.817383</ele>
        <time>2011-02-20T11:10:14Z</time>
      </trkpt>
      <trkpt lat="44.48996" lon="5.00356">
        <ele>642.298096</ele>
        <time>2011-02-20T11:10:35Z</time>
      </trkpt>
      <trkpt lat="44.48971" lon="5.0037">
        <ele>644.220703</ele>
        <time>2011-02-20T11:11:01Z</time>
      </trkpt>
      <trkpt lat="44.48951" lon="5.00376">
        <ele>647.104492</ele>
        <time>2011-02-20T11:11:21Z</time>
      </trkpt>
      <trkpt lat="44.48947" lon="5.00391">
        <ele>647.585205</ele>
        <time>2011-02-20T11:11:47Z</time>
      </trkpt>
      <trkpt lat="44.48936" lon="5.004">
        <ele>647.104492</ele>
        <time>2011-02-20T11:12:15Z</time>
      </trkpt>
      <trkpt lat="44.48922" lon="5.00406">
        <ele>646.143311</ele>
        <time>2011-02-20T11:12:34Z</time>
      </trkpt>
      <trkpt lat="44.48907" lon="5.00418">
        <ele>646.143311</ele>
        <time>2011-02-20T11:12:50Z</time>
      </trkpt>
      <trkpt lat="44.48897" lon="5.0042">
        <ele>647.104492</ele>
        <time>2011-02-20T11:13:00Z</time>
      </trkpt>
      <trkpt lat="44.48893" lon="5.00424">
        <ele>646.624023</ele>
        <time>2011-02-20T11:13:04Z</time>
      </trkpt>
      <trkpt lat="44.48872" lon="5.00438">
        <ele>645.181885</ele>
        <time>2011-02-20T11:13:26Z</time>
      </trkpt>
      <trkpt lat="44.48856" lon="5.00446">
        <ele>645.662598</ele>
        <time>2011-02-20T11:13:41Z</time>
      </trkpt>
      <trkpt lat="44.4884" lon="5.00457">
        <ele>646.624023</ele>
        <time>2011-02-20T11:13:57Z</time>
      </trkpt>
      <trkpt lat="44.48826" lon="5.00464">
        <ele>647.104492</ele>
        <time>2011-02-20T11:14:11Z</time>
      </trkpt>
      <trkpt lat="44.48809" lon="5.0048">
        <ele>648.546387</ele>
        <time>2011-02-20T11:14:31Z</time>
      </trkpt>
      <trkpt lat="44.48793" lon="5.00492">
        <ele>649.0271</ele>
        <time>2011-02-20T11:14:51Z</time>
      </trkpt>
      <trkpt lat="44.48784" lon="5.005">
        <ele>649.507813</ele>
        <time>2011-02-20T11:15:01Z</time>
      </trkpt>
      <trkpt lat="44.48767" lon="5.00513">
        <ele>649.988525</ele>
        <time>2011-02-20T11:15:18Z</time>
      </trkpt>
      <trkpt lat="44.4875" lon="5.00527">
        <ele>650.469238</ele>
        <time>2011-02-20T11:15:34Z</time>
      </trkpt>
      <trkpt lat="44.48739" lon="5.00534">
        <ele>649.988525</ele>
        <time>2011-02-20T11:15:45Z</time>
      </trkpt>
      <trkpt lat="44.48721" lon="5.00546">
        <ele>650.949707</ele>
        <time>2011-02-20T11:16:04Z</time>
      </trkpt>
      <trkpt lat="44.48716" lon="5.00547">
        <ele>650.949707</ele>
        <time>2011-02-20T11:16:08Z</time>
      </trkpt>
      <trkpt lat="44.48703" lon="5.0055">
        <ele>651.43042</ele>
        <time>2011-02-20T11:16:21Z</time>
      </trkpt>
      <trkpt lat="44.48681" lon="5.00555">
        <ele>653.353271</ele>
        <time>2011-02-20T11:16:40Z</time>
      </trkpt>
      <trkpt lat="44.48662" lon="5.00564">
        <ele>651.911133</ele>
        <time>2011-02-20T11:16:57Z</time>
      </trkpt>
      <trkpt lat="44.48659" lon="5.00564">
        <ele>651.911133</ele>
        <time>2011-02-20T11:17:00Z</time>
      </trkpt>
      <trkpt lat="44.48636" lon="5.00574">
        <ele>652.391846</ele>
        <time>2011-02-20T11:17:19Z</time>
      </trkpt>
      <trkpt lat="44.48624" lon="5.00581">
        <ele>652.391846</ele>
        <time>2011-02-20T11:17:28Z</time>
      </trkpt>
      <trkpt lat="44.48608" lon="5.00587">
        <ele>651.911133</ele>
        <time>2011-02-20T11:17:43Z</time>
      </trkpt>
      <trkpt lat="44.48586" lon="5.006">
        <ele>652.391846</ele>
        <time>2011-02-20T11:18:01Z</time>
      </trkpt>
      <trkpt lat="44.48582" lon="5.00601">
        <ele>652.391846</ele>
        <time>2011-02-20T11:18:05Z</time>
      </trkpt>
      <trkpt lat="44.48565" lon="5.0061">
        <ele>651.911133</ele>
        <time>2011-02-20T11:18:22Z</time>
      </trkpt>
      <trkpt lat="44.48543" lon="5.00623">
        <ele>650.949707</ele>
        <time>2011-02-20T11:18:41Z</time>
      </trkpt>
      <trkpt lat="44.48536" lon="5.00626">
        <ele>649.988525</ele>
        <time>2011-02-20T11:18:48Z</time>
      </trkpt>
      <trkpt lat="44.48516" lon="5.00631">
        <ele>650.949707</ele>
        <time>2011-02-20T11:19:07Z</time>
      </trkpt>
      <trkpt lat="44.48499" lon="5.00637">
        <ele>651.43042</ele>
        <time>2011-02-20T11:19:23Z</time>
      </trkpt>
      <trkpt lat="44.48481" lon="5.00645">
        <ele>650.469238</ele>
        <time>2011-02-20T11:19:41Z</time>
      </trkpt>
      <trkpt lat="44.48467" lon="5.00656">
        <ele>650.469238</ele>
        <time>2011-02-20T11:19:56Z</time>
      </trkpt>
      <trkpt lat="44.48447" lon="5.00659">
        <ele>651.911133</ele>
        <time>2011-02-20T11:20:17Z</time>
      </trkpt>
      <trkpt lat="44.48425" lon="5.00671">
        <ele>655.275879</ele>
        <time>2011-02-20T11:20:35Z</time>
      </trkpt>
      <trkpt lat="44.48421" lon="5.00678">
        <ele>655.275879</ele>
        <time>2011-02-20T11:21:17Z</time>
      </trkpt>
      <trkpt lat="44.4842" lon="5.00683">
        <ele>658.640381</ele>
        <time>2011-02-20T11:22:20Z</time>
      </trkpt>
      <trkpt lat="44.48408" lon="5.00678">
        <ele>659.601807</ele>
        <time>2011-02-20T11:23:58Z</time>
      </trkpt>
      <trkpt lat="44.48389" lon="5.00682">
        <ele>658.640381</ele>
        <time>2011-02-20T11:24:19Z</time>
      </trkpt>
      <trkpt lat="44.48372" lon="5.00694">
        <ele>657.198486</ele>
        <time>2011-02-20T11:24:39Z</time>
      </trkpt>
      <trkpt lat="44.48356" lon="5.00708">
        <ele>655.275879</ele>
        <time>2011-02-20T11:24:59Z</time>
      </trkpt>
      <trkpt lat="44.48355" lon="5.0071">
        <ele>655.275879</ele>
        <time>2011-02-20T11:25:01Z</time>
      </trkpt>
      <trkpt lat="44.48342" lon="5.00719">
        <ele>653.833984</ele>
        <time>2011-02-20T11:25:18Z</time>
      </trkpt>
      <trkpt lat="44.48324" lon="5.00719">
        <ele>653.353271</ele>
        <time>2011-02-20T11:25:34Z</time>
      </trkpt>
      <trkpt lat="44.48305" lon="5.00727">
        <ele>652.872559</ele>
        <time>2011-02-20T11:25:50Z</time>
      </trkpt>
      <trkpt lat="44.48299" lon="5.00731">
        <ele>652.872559</ele>
        <time>2011-02-20T11:25:57Z</time>
      </trkpt>
      <trkpt lat="44.48292" lon="5.00746">
        <ele>654.314697</ele>
        <time>2011-02-20T11:26:13Z</time>
      </trkpt>
      <trkpt lat="44.48272" lon="5.00786">
        <ele>656.237061</ele>
        <time>2011-02-20T11:26:45Z</time>
      </trkpt>
      <trkpt lat="44.48244" lon="5.00807">
        <ele>656.717773</ele>
        <time>2011-02-20T11:27:09Z</time>
      </trkpt>
      <trkpt lat="44.4823" lon="5.00819">
        <ele>657.679199</ele>
        <time>2011-02-20T11:27:42Z</time>
      </trkpt>
      <trkpt lat="44.48207" lon="5.00835">
        <ele>658.640381</ele>
        <time>2011-02-20T11:28:04Z</time>
      </trkpt>
      <trkpt lat="44.48188" lon="5.00847">
        <ele>660.082275</ele>
        <time>2011-02-20T11:28:19Z</time>
      </trkpt>
      <trkpt lat="44.48167" lon="5.00849">
        <ele>660.562988</ele>
        <time>2011-02-20T11:28:36Z</time>
      </trkpt>
      <trkpt lat="44.48149" lon="5.00857">
        <ele>661.043701</ele>
        <time>2011-02-20T11:28:50Z</time>
      </trkpt>
      <trkpt lat="44.48142" lon="5.00858">
        <ele>660.082275</ele>
        <time>2011-02-20T11:29:38Z</time>
      </trkpt>
      <trkpt lat="44.48131" lon="5.00861">
        <ele>660.082275</ele>
        <time>2011-02-20T11:29:55Z</time>
      </trkpt>
      <trkpt lat="44.48117" lon="5.00862">
        <ele>659.121094</ele>
        <time>2011-02-20T11:30:12Z</time>
      </trkpt>
      <trkpt lat="44.48098" lon="5.00867">
        <ele>657.679199</ele>
        <time>2011-02-20T11:30:30Z</time>
      </trkpt>
      <trkpt lat="44.48084" lon="5.0087">
        <ele>655.756592</ele>
        <time>2011-02-20T11:30:46Z</time>
      </trkpt>
      <trkpt lat="44.48072" lon="5.00875">
        <ele>654.795166</ele>
        <time>2011-02-20T11:31:03Z</time>
      </trkpt>
      <trkpt lat="44.48053" lon="5.0088">
        <ele>651.43042</ele>
        <time>2011-02-20T11:31:27Z</time>
      </trkpt>
      <trkpt lat="44.48037" lon="5.00887">
        <ele>649.988525</ele>
        <time>2011-02-20T11:31:49Z</time>
      </trkpt>
      <trkpt lat="44.48024" lon="5.009">
        <ele>649.988525</ele>
        <time>2011-02-20T11:32:07Z</time>
      </trkpt>
      <trkpt lat="44.4801" lon="5.00913">
        <ele>649.507813</ele>
        <time>2011-02-20T11:32:24Z</time>
      </trkpt>
      <trkpt lat="44.47994" lon="5.00912">
        <ele>649.988525</ele>
        <time>2011-02-20T11:32:41Z</time>
      </trkpt>
      <trkpt lat="44.47985" lon="5.00911">
        <ele>650.469238</ele>
        <time>2011-02-20T11:32:55Z</time>
      </trkpt>
      <trkpt lat="44.47972" lon="5.00908">
        <ele>650.949707</ele>
        <time>2011-02-20T11:33:10Z</time>
      </trkpt>
      <trkpt lat="44.4796" lon="5.00903">
        <ele>651.911133</ele>
        <time>2011-02-20T11:33:25Z</time>
      </trkpt>
      <trkpt lat="44.47942" lon="5.00902">
        <ele>654.795166</ele>
        <time>2011-02-20T11:33:45Z</time>
      </trkpt>
      <trkpt lat="44.47932" lon="5.00895">
        <ele>657.679199</ele>
        <time>2011-02-20T11:34:01Z</time>
      </trkpt>
      <trkpt lat="44.47917" lon="5.00887">
        <ele>661.043701</ele>
        <time>2011-02-20T11:34:20Z</time>
      </trkpt>
      <trkpt lat="44.47907" lon="5.00888">
        <ele>663.92749</ele>
        <time>2011-02-20T11:34:40Z</time>
      </trkpt>
      <trkpt lat="44.47897" lon="5.00883">
        <ele>665.369629</ele>
        <time>2011-02-20T11:34:57Z</time>
      </trkpt>
      <trkpt lat="44.47884" lon="5.00884">
        <ele>668.253662</ele>
        <time>2011-02-20T11:35:18Z</time>
      </trkpt>
      <trkpt lat="44.47872" lon="5.0088">
        <ele>670.17627</ele>
        <time>2011-02-20T11:35:42Z</time>
      </trkpt>
      <trkpt lat="44.47856" lon="5.00879">
        <ele>673.060303</ele>
        <time>2011-02-20T11:36:05Z</time>
      </trkpt>
      <trkpt lat="44.47845" lon="5.00875">
        <ele>675.463379</ele>
        <time>2011-02-20T11:36:24Z</time>
      </trkpt>
      <trkpt lat="44.47833" lon="5.00877">
        <ele>677.38623</ele>
        <time>2011-02-20T11:36:44Z</time>
      </trkpt>
      <trkpt lat="44.47821" lon="5.00879">
        <ele>679.308594</ele>
        <time>2011-02-20T11:37:02Z</time>
      </trkpt>
      <trkpt lat="44.47807" lon="5.0088">
        <ele>681.711914</ele>
        <time>2011-02-20T11:37:23Z</time>
      </trkpt>
      <trkpt lat="44.47798" lon="5.00884">
        <ele>683.153809</ele>
        <time>2011-02-20T11:37:41Z</time>
      </trkpt>
      <trkpt lat="44.47788" lon="5.0089">
        <ele>684.115479</ele>
        <time>2011-02-20T11:37:56Z</time>
      </trkpt>
      <trkpt lat="44.4778" lon="5.00893">
        <ele>686.999268</ele>
        <time>2011-02-20T11:38:15Z</time>
      </trkpt>
      <trkpt lat="44.47768" lon="5.00892">
        <ele>688.922119</ele>
        <time>2011-02-20T11:38:31Z</time>
      </trkpt>
      <trkpt lat="44.47754" lon="5.00883">
        <ele>691.325195</ele>
        <time>2011-02-20T11:38:52Z</time>
      </trkpt>
      <trkpt lat="44.4775" lon="5.00883">
        <ele>691.805908</ele>
        <time>2011-02-20T11:38:57Z</time>
      </trkpt>
      <trkpt lat="44.47733" lon="5.00883">
        <ele>693.247803</ele>
        <time>2011-02-20T11:39:16Z</time>
      </trkpt>
      <trkpt lat="44.47718" lon="5.00882">
        <ele>693.728516</ele>
        <time>2011-02-20T11:39:34Z</time>
      </trkpt>
      <trkpt lat="44.47706" lon="5.0088">
        <ele>695.17041</ele>
        <time>2011-02-20T11:39:53Z</time>
      </trkpt>
      <trkpt lat="44.47701" lon="5.0088">
        <ele>695.651123</ele>
        <time>2011-02-20T11:40:21Z</time>
      </trkpt>
      <trkpt lat="44.47698" lon="5.00878">
        <ele>697.093018</ele>
        <time>2011-02-20T11:40:26Z</time>
      </trkpt>
      <trkpt lat="44.47683" lon="5.00872">
        <ele>695.651123</ele>
        <time>2011-02-20T11:40:45Z</time>
      </trkpt>
      <trkpt lat="44.47669" lon="5.00868">
        <ele>695.651123</ele>
        <time>2011-02-20T11:41:00Z</time>
      </trkpt>
      <trkpt lat="44.47657" lon="5.00861">
        <ele>696.612549</ele>
        <time>2011-02-20T11:41:13Z</time>
      </trkpt>
      <trkpt lat="44.47635" lon="5.0086">
        <ele>696.131836</ele>
        <time>2011-02-20T11:41:33Z</time>
      </trkpt>
      <trkpt lat="44.47632" lon="5.00861">
        <ele>696.612549</ele>
        <time>2011-02-20T11:41:36Z</time>
      </trkpt>
      <trkpt lat="44.4763" lon="5.00862">
        <ele>696.612549</ele>
        <time>2011-02-20T11:41:38Z</time>
      </trkpt>
      <trkpt lat="44.47615" lon="5.00861">
        <ele>695.651123</ele>
        <time>2011-02-20T11:41:52Z</time>
      </trkpt>
      <trkpt lat="44.47596" lon="5.00865">
        <ele>694.689697</ele>
        <time>2011-02-20T11:42:09Z</time>
      </trkpt>
      <trkpt lat="44.47576" lon="5.00863">
        <ele>692.767334</ele>
        <time>2011-02-20T11:42:29Z</time>
      </trkpt>
      <trkpt lat="44.47568" lon="5.00867">
        <ele>691.325195</ele>
        <time>2011-02-20T11:42:38Z</time>
      </trkpt>
      <trkpt lat="44.47551" lon="5.0087">
        <ele>687.960693</ele>
        <time>2011-02-20T11:42:58Z</time>
      </trkpt>
      <trkpt lat="44.47536" lon="5.00873">
        <ele>685.076904</ele>
        <time>2011-02-20T11:43:15Z</time>
      </trkpt>
      <trkpt lat="44.47524" lon="5.00878">
        <ele>682.192627</ele>
        <time>2011-02-20T11:43:29Z</time>
      </trkpt>
      <trkpt lat="44.47522" lon="5.00879">
        <ele>682.192627</ele>
        <time>2011-02-20T11:43:31Z</time>
      </trkpt>
      <trkpt lat="44.47514" lon="5.00879">
        <ele>679.308594</ele>
        <time>2011-02-20T11:43:43Z</time>
      </trkpt>
      <trkpt lat="44.47507" lon="5.00891">
        <ele>675.944092</ele>
        <time>2011-02-20T11:44:00Z</time>
      </trkpt>
      <trkpt lat="44.47493" lon="5.00894">
        <ele>673.060303</ele>
        <time>2011-02-20T11:44:18Z</time>
      </trkpt>
      <trkpt lat="44.47482" lon="5.00895">
        <ele>670.17627</ele>
        <time>2011-02-20T11:44:33Z</time>
      </trkpt>
      <trkpt lat="44.47469" lon="5.00901">
        <ele>667.772705</ele>
        <time>2011-02-20T11:44:50Z</time>
      </trkpt>
      <trkpt lat="44.47454" lon="5.00911">
        <ele>664.408203</ele>
        <time>2011-02-20T11:45:08Z</time>
      </trkpt>
      <trkpt lat="44.47443" lon="5.0092">
        <ele>662.485596</ele>
        <time>2011-02-20T11:45:25Z</time>
      </trkpt>
      <trkpt lat="44.47428" lon="5.00926">
        <ele>659.121094</ele>
        <time>2011-02-20T11:45:45Z</time>
      </trkpt>
      <trkpt lat="44.47421" lon="5.0093">
        <ele>655.756592</ele>
        <time>2011-02-20T11:45:57Z</time>
      </trkpt>
      <trkpt lat="44.4742" lon="5.00931">
        <ele>655.275879</ele>
        <time>2011-02-20T11:45:58Z</time>
      </trkpt>
      <trkpt lat="44.47408" lon="5.00937">
        <ele>652.872559</ele>
        <time>2011-02-20T11:46:18Z</time>
      </trkpt>
      <trkpt lat="44.47404" lon="5.00941">
        <ele>649.507813</ele>
        <time>2011-02-20T11:46:26Z</time>
      </trkpt>
      <trkpt lat="44.47392" lon="5.00945">
        <ele>646.624023</ele>
        <time>2011-02-20T11:46:41Z</time>
      </trkpt>
      <trkpt lat="44.47378" lon="5.00952">
        <ele>643.73999</ele>
        <time>2011-02-20T11:47:00Z</time>
      </trkpt>
      <trkpt lat="44.47369" lon="5.00958">
        <ele>641.817383</ele>
        <time>2011-02-20T11:47:17Z</time>
      </trkpt>
      <trkpt lat="44.47359" lon="5.00964">
        <ele>638.452881</ele>
        <time>2011-02-20T11:47:29Z</time>
      </trkpt>
      <trkpt lat="44.47348" lon="5.00968">
        <ele>635.568604</ele>
        <time>2011-02-20T11:47:43Z</time>
      </trkpt>
      <trkpt lat="44.47335" lon="5.00973">
        <ele>632.684814</ele>
        <time>2011-02-20T11:47:57Z</time>
      </trkpt>
      <trkpt lat="44.47316" lon="5.00988">
        <ele>633.165283</ele>
        <time>2011-02-20T11:48:18Z</time>
      </trkpt>
      <trkpt lat="44.47315" lon="5.00988">
        <ele>633.645996</ele>
        <time>2011-02-20T11:48:19Z</time>
      </trkpt>
      <trkpt lat="44.47299" lon="5.00995">
        <ele>635.568604</ele>
        <time>2011-02-20T11:48:35Z</time>
      </trkpt>
      <trkpt lat="44.47275" lon="5.00998">
        <ele>637.010742</ele>
        <time>2011-02-20T11:48:57Z</time>
      </trkpt>
      <trkpt lat="44.47257" lon="5.0099">
        <ele>638.452881</ele>
        <time>2011-02-20T11:49:17Z</time>
      </trkpt>
      <trkpt lat="44.47241" lon="5.00984">
        <ele>640.375488</ele>
        <time>2011-02-20T11:49:34Z</time>
      </trkpt>
      <trkpt lat="44.47227" lon="5.00975">
        <ele>639.894775</ele>
        <time>2011-02-20T11:49:50Z</time>
      </trkpt>
      <trkpt lat="44.47219" lon="5.0097">
        <ele>639.414063</ele>
        <time>2011-02-20T11:49:58Z</time>
      </trkpt>
      <trkpt lat="44.47202" lon="5.00959">
        <ele>636.530273</ele>
        <time>2011-02-20T11:50:17Z</time>
      </trkpt>
      <trkpt lat="44.4719" lon="5.00951">
        <ele>637.491455</ele>
        <time>2011-02-20T11:50:32Z</time>
      </trkpt>
      <trkpt lat="44.47185" lon="5.00948">
        <ele>637.491455</ele>
        <time>2011-02-20T11:50:49Z</time>
      </trkpt>
      <trkpt lat="44.47185" lon="5.00947">
        <ele>639.894775</ele>
        <time>2011-02-20T11:51:14Z</time>
      </trkpt>
      <trkpt lat="44.47179" lon="5.00945">
        <ele>638.452881</ele>
        <time>2011-02-20T11:55:47Z</time>
      </trkpt>
      <trkpt lat="44.47168" lon="5.00942">
        <ele>638.452881</ele>
        <time>2011-02-20T11:55:58Z</time>
      </trkpt>
      <trkpt lat="44.47164" lon="5.00943">
        <ele>638.452881</ele>
        <time>2011-02-20T11:56:02Z</time>
      </trkpt>
      <trkpt lat="44.47158" lon="5.0094">
        <ele>637.491455</ele>
        <time>2011-02-20T11:56:08Z</time>
      </trkpt>
      <trkpt lat="44.47137" lon="5.00929">
        <ele>636.530273</ele>
        <time>2011-02-20T11:56:27Z</time>
      </trkpt>
      <trkpt lat="44.4713" lon="5.00932">
        <ele>636.049561</ele>
        <time>2011-02-20T11:56:34Z</time>
      </trkpt>
      <trkpt lat="44.47123" lon="5.0093">
        <ele>635.088135</ele>
        <time>2011-02-20T11:56:42Z</time>
      </trkpt>
      <trkpt lat="44.47112" lon="5.00931">
        <ele>636.049561</ele>
        <time>2011-02-20T11:56:54Z</time>
      </trkpt>
      <trkpt lat="44.47093" lon="5.00931">
        <ele>637.010742</ele>
        <time>2011-02-20T11:57:10Z</time>
      </trkpt>
      <trkpt lat="44.47078" lon="5.0093">
        <ele>637.010742</ele>
        <time>2011-02-20T11:57:23Z</time>
      </trkpt>
      <trkpt lat="44.47063" lon="5.00933">
        <ele>638.452881</ele>
        <time>2011-02-20T11:57:37Z</time>
      </trkpt>
      <trkpt lat="44.47061" lon="5.00934">
        <ele>639.414063</ele>
        <time>2011-02-20T11:57:40Z</time>
      </trkpt>
      <trkpt lat="44.47049" lon="5.00937">
        <ele>643.259277</ele>
        <time>2011-02-20T11:57:53Z</time>
      </trkpt>
      <trkpt lat="44.47039" lon="5.00943">
        <ele>647.104492</ele>
        <time>2011-02-20T11:58:16Z</time>
      </trkpt>
      <trkpt lat="44.47034" lon="5.00943">
        <ele>650.469238</ele>
        <time>2011-02-20T11:58:27Z</time>
      </trkpt>
      <trkpt lat="44.47032" lon="5.00947">
        <ele>651.911133</ele>
        <time>2011-02-20T11:58:35Z</time>
      </trkpt>
      <trkpt lat="44.47026" lon="5.00945">
        <ele>655.275879</ele>
        <time>2011-02-20T11:58:47Z</time>
      </trkpt>
      <trkpt lat="44.47025" lon="5.00944">
        <ele>655.756592</ele>
        <time>2011-02-20T11:58:48Z</time>
      </trkpt>
      <trkpt lat="44.47019" lon="5.00938">
        <ele>659.121094</ele>
        <time>2011-02-20T11:59:02Z</time>
      </trkpt>
      <trkpt lat="44.47015" lon="5.00949">
        <ele>662.005127</ele>
        <time>2011-02-20T11:59:17Z</time>
      </trkpt>
      <trkpt lat="44.47008" lon="5.00949">
        <ele>662.485596</ele>
        <time>2011-02-20T11:59:32Z</time>
      </trkpt>
      <trkpt lat="44.47004" lon="5.0095">
        <ele>665.850342</ele>
        <time>2011-02-20T11:59:57Z</time>
      </trkpt>
      <trkpt lat="44.46999" lon="5.00948">
        <ele>668.253662</ele>
        <time>2011-02-20T12:00:14Z</time>
      </trkpt>
      <trkpt lat="44.46996" lon="5.00952">
        <ele>671.618164</ele>
        <time>2011-02-20T12:00:20Z</time>
      </trkpt>
      <trkpt lat="44.46996" lon="5.00954">
        <ele>667.772705</ele>
        <time>2011-02-20T12:00:23Z</time>
      </trkpt>
      <trkpt lat="44.46989" lon="5.00958">
        <ele>670.17627</ele>
        <time>2011-02-20T12:00:42Z</time>
      </trkpt>
      <trkpt lat="44.46984" lon="5.00961">
        <ele>673.060303</ele>
        <time>2011-02-20T12:01:03Z</time>
      </trkpt>
      <trkpt lat="44.46978" lon="5.00967">
        <ele>675.944092</ele>
        <time>2011-02-20T12:01:28Z</time>
      </trkpt>
      <trkpt lat="44.46972" lon="5.00967">
        <ele>678.347412</ele>
        <time>2011-02-20T12:01:48Z</time>
      </trkpt>
      <trkpt lat="44.46971" lon="5.00966">
        <ele>677.38623</ele>
        <time>2011-02-20T12:01:52Z</time>
      </trkpt>
      <trkpt lat="44.46963" lon="5.00975">
        <ele>680.750732</ele>
        <time>2011-02-20T12:02:11Z</time>
      </trkpt>
      <trkpt lat="44.46961" lon="5.00976">
        <ele>681.711914</ele>
        <time>2011-02-20T12:02:17Z</time>
      </trkpt>
      <trkpt lat="44.46953" lon="5.0098">
        <ele>685.076904</ele>
        <time>2011-02-20T12:02:37Z</time>
      </trkpt>
      <trkpt lat="44.46947" lon="5.00985">
        <ele>687.960693</ele>
        <time>2011-02-20T12:02:51Z</time>
      </trkpt>
      <trkpt lat="44.46946" lon="5.00985">
        <ele>688.922119</ele>
        <time>2011-02-20T12:02:58Z</time>
      </trkpt>
      <trkpt lat="44.46939" lon="5.00989">
        <ele>690.364014</ele>
        <time>2011-02-20T12:03:27Z</time>
      </trkpt>
      <trkpt lat="44.46937" lon="5.00991">
        <ele>690.364014</ele>
        <time>2011-02-20T12:03:50Z</time>
      </trkpt>
      <trkpt lat="44.46937" lon="5.00992">
        <ele>690.844482</ele>
        <time>2011-02-20T12:04:20Z</time>
      </trkpt>
      <trkpt lat="44.46937" lon="5.00992">
        <ele>690.364014</ele>
        <time>2011-02-20T12:04:30Z</time>
      </trkpt>
      <trkpt lat="44.46937" lon="5.00992">
        <ele>688.441406</ele>
        <time>2011-02-20T12:04:38Z</time>
      </trkpt>
      <trkpt lat="44.46937" lon="5.00992">
        <ele>688.441406</ele>
        <time>2011-02-20T12:04:48Z</time>
      </trkpt>
      <trkpt lat="44.46937" lon="5.00994">
        <ele>689.883301</ele>
        <time>2011-02-20T12:04:59Z</time>
      </trkpt>
      <trkpt lat="44.46939" lon="5.0099">
        <ele>692.286621</ele>
        <time>2011-02-20T12:05:49Z</time>
      </trkpt>
      <trkpt lat="44.4694" lon="5.00989">
        <ele>690.364014</ele>
        <time>2011-02-20T12:06:20Z</time>
      </trkpt>
      <trkpt lat="44.4694" lon="5.0099">
        <ele>688.441406</ele>
        <time>2011-02-20T12:07:04Z</time>
      </trkpt>
      <trkpt lat="44.46938" lon="5.00991">
        <ele>688.922119</ele>
        <time>2011-02-20T12:07:43Z</time>
      </trkpt>
      <trkpt lat="44.46939" lon="5.00991">
        <ele>692.286621</ele>
        <time>2011-02-20T12:08:31Z</time>
      </trkpt>
      <trkpt lat="44.46939" lon="5.00991">
        <ele>693.728516</ele>
        <time>2011-02-20T12:08:47Z</time>
      </trkpt>
      <trkpt lat="44.46937" lon="5.00992">
        <ele>690.364014</ele>
        <time>2011-02-20T12:08:50Z</time>
      </trkpt>
      <trkpt lat="44.46937" lon="5.00992">
        <ele>690.364014</ele>
        <time>2011-02-20T12:08:51Z</time>
      </trkpt>
      <trkpt lat="44.46935" lon="5.00991">
        <ele>688.922119</ele>
        <time>2011-02-20T12:08:57Z</time>
      </trkpt>
      <trkpt lat="44.46933" lon="5.0099">
        <ele>687.960693</ele>
        <time>2011-02-20T12:09:01Z</time>
      </trkpt>
      <trkpt lat="44.46927" lon="5.00988">
        <ele>686.518799</ele>
        <time>2011-02-20T12:09:08Z</time>
      </trkpt>
      <trkpt lat="44.46919" lon="5.00987">
        <ele>689.402588</ele>
        <time>2011-02-20T12:09:15Z</time>
      </trkpt>
      <trkpt lat="44.46914" lon="5.00988">
        <ele>687.47998</ele>
        <time>2011-02-20T12:09:19Z</time>
      </trkpt>
      <trkpt lat="44.46888" lon="5.00991">
        <ele>684.596191</ele>
        <time>2011-02-20T12:09:41Z</time>
      </trkpt>
      <trkpt lat="44.46875" lon="5.00985">
        <ele>680.750732</ele>
        <time>2011-02-20T12:09:55Z</time>
      </trkpt>
      <trkpt lat="44.46873" lon="5.00984">
        <ele>679.308594</ele>
        <time>2011-02-20T12:09:57Z</time>
      </trkpt>
      <trkpt lat="44.46866" lon="5.00977">
        <ele>678.828125</ele>
        <time>2011-02-20T12:10:08Z</time>
      </trkpt>
      <trkpt lat="44.4686" lon="5.00978">
        <ele>678.828125</ele>
        <time>2011-02-20T12:10:14Z</time>
      </trkpt>
      <trkpt lat="44.46845" lon="5.00991">
        <ele>679.789307</ele>
        <time>2011-02-20T12:10:28Z</time>
      </trkpt>
      <trkpt lat="44.46832" lon="5.00989">
        <ele>675.944092</ele>
        <time>2011-02-20T12:10:43Z</time>
      </trkpt>
      <trkpt lat="44.46831" lon="5.00989">
        <ele>675.944092</ele>
        <time>2011-02-20T12:10:44Z</time>
      </trkpt>
      <trkpt lat="44.46823" lon="5.0098">
        <ele>672.57959</ele>
        <time>2011-02-20T12:10:56Z</time>
      </trkpt>
      <trkpt lat="44.46807" lon="5.00985">
        <ele>672.098877</ele>
        <time>2011-02-20T12:11:10Z</time>
      </trkpt>
      <trkpt lat="44.46803" lon="5.00989">
        <ele>672.098877</ele>
        <time>2011-02-20T12:11:14Z</time>
      </trkpt>
      <trkpt lat="44.46798" lon="5.00989">
        <ele>671.137695</ele>
        <time>2011-02-20T12:11:18Z</time>
      </trkpt>
      <trkpt lat="44.4679" lon="5.01002">
        <ele>673.060303</ele>
        <time>2011-02-20T12:11:28Z</time>
      </trkpt>
      <trkpt lat="44.46785" lon="5.01008">
        <ele>673.541016</ele>
        <time>2011-02-20T12:11:34Z</time>
      </trkpt>
      <trkpt lat="44.46777" lon="5.01016">
        <ele>672.57959</ele>
        <time>2011-02-20T12:11:41Z</time>
      </trkpt>
      <trkpt lat="44.46765" lon="5.01025">
        <ele>671.618164</ele>
        <time>2011-02-20T12:11:52Z</time>
      </trkpt>
      <trkpt lat="44.46757" lon="5.01031">
        <ele>672.57959</ele>
        <time>2011-02-20T12:12:01Z</time>
      </trkpt>
      <trkpt lat="44.46754" lon="5.01031">
        <ele>671.137695</ele>
        <time>2011-02-20T12:12:05Z</time>
      </trkpt>
      <trkpt lat="44.46732" lon="5.01038">
        <ele>671.137695</ele>
        <time>2011-02-20T12:12:22Z</time>
      </trkpt>
      <trkpt lat="44.46722" lon="5.01043">
        <ele>668.253662</ele>
        <time>2011-02-20T12:12:31Z</time>
      </trkpt>
      <trkpt lat="44.4671" lon="5.01054">
        <ele>666.811523</ele>
        <time>2011-02-20T12:12:43Z</time>
      </trkpt>
      <trkpt lat="44.467" lon="5.01059">
        <ele>666.811523</ele>
        <time>2011-02-20T12:12:50Z</time>
      </trkpt>
      <trkpt lat="44.46685" lon="5.01071">
        <ele>664.888916</ele>
        <time>2011-02-20T12:13:05Z</time>
      </trkpt>
      <trkpt lat="44.46682" lon="5.01072">
        <ele>665.369629</ele>
        <time>2011-02-20T12:13:07Z</time>
      </trkpt>
      <trkpt lat="44.46673" lon="5.01086">
        <ele>664.408203</ele>
        <time>2011-02-20T12:13:16Z</time>
      </trkpt>
      <trkpt lat="44.46673" lon="5.01093">
        <ele>664.408203</ele>
        <time>2011-02-20T12:13:20Z</time>
      </trkpt>
      <trkpt lat="44.46668" lon="5.01095">
        <ele>662.966309</ele>
        <time>2011-02-20T12:13:26Z</time>
      </trkpt>
      <trkpt lat="44.46652" lon="5.01095">
        <ele>662.005127</ele>
        <time>2011-02-20T12:13:39Z</time>
      </trkpt>
      <trkpt lat="44.4665" lon="5.01096">
        <ele>659.601807</ele>
        <time>2011-02-20T12:13:42Z</time>
      </trkpt>
      <trkpt lat="44.4664" lon="5.01093">
        <ele>658.640381</ele>
        <time>2011-02-20T12:13:55Z</time>
      </trkpt>
      <trkpt lat="44.46629" lon="5.01098">
        <ele>657.679199</ele>
        <time>2011-02-20T12:14:09Z</time>
      </trkpt>
      <trkpt lat="44.46618" lon="5.01101">
        <ele>654.314697</ele>
        <time>2011-02-20T12:14:24Z</time>
      </trkpt>
      <trkpt lat="44.46606" lon="5.01098">
        <ele>650.949707</ele>
        <time>2011-02-20T12:14:41Z</time>
      </trkpt>
      <trkpt lat="44.46599" lon="5.01102">
        <ele>649.507813</ele>
        <time>2011-02-20T12:14:53Z</time>
      </trkpt>
      <trkpt lat="44.46588" lon="5.01105">
        <ele>648.065918</ele>
        <time>2011-02-20T12:15:06Z</time>
      </trkpt>
      <trkpt lat="44.46578" lon="5.01102">
        <ele>645.662598</ele>
        <time>2011-02-20T12:15:21Z</time>
      </trkpt>
      <trkpt lat="44.46569" lon="5.01098">
        <ele>642.298096</ele>
        <time>2011-02-20T12:15:34Z</time>
      </trkpt>
      <trkpt lat="44.46565" lon="5.01099">
        <ele>641.817383</ele>
        <time>2011-02-20T12:15:38Z</time>
      </trkpt>
      <trkpt lat="44.46554" lon="5.01106">
        <ele>640.375488</ele>
        <time>2011-02-20T12:15:49Z</time>
      </trkpt>
      <trkpt lat="44.46544" lon="5.01105">
        <ele>638.933594</ele>
        <time>2011-02-20T12:15:59Z</time>
      </trkpt>
      <trkpt lat="44.46542" lon="5.01106">
        <ele>638.452881</ele>
        <time>2011-02-20T12:16:01Z</time>
      </trkpt>
      <trkpt lat="44.4654" lon="5.01108">
        <ele>638.452881</ele>
        <time>2011-02-20T12:16:03Z</time>
      </trkpt>
      <trkpt lat="44.46537" lon="5.01109">
        <ele>638.452881</ele>
        <time>2011-02-20T12:16:07Z</time>
      </trkpt>
      <trkpt lat="44.46527" lon="5.01119">
        <ele>638.452881</ele>
        <time>2011-02-20T12:16:13Z</time>
      </trkpt>
      <trkpt lat="44.46528" lon="5.01125">
        <ele>639.414063</ele>
        <time>2011-02-20T12:16:17Z</time>
      </trkpt>
      <trkpt lat="44.46523" lon="5.01138">
        <ele>638.452881</ele>
        <time>2011-02-20T12:16:31Z</time>
      </trkpt>
      <trkpt lat="44.46513" lon="5.01136">
        <ele>635.568604</ele>
        <time>2011-02-20T12:16:44Z</time>
      </trkpt>
      <trkpt lat="44.46505" lon="5.01133">
        <ele>632.684814</ele>
        <time>2011-02-20T12:17:00Z</time>
      </trkpt>
      <trkpt lat="44.46495" lon="5.01124">
        <ele>629.800781</ele>
        <time>2011-02-20T12:17:15Z</time>
      </trkpt>
      <trkpt lat="44.46487" lon="5.0112">
        <ele>628.358887</ele>
        <time>2011-02-20T12:17:31Z</time>
      </trkpt>
      <trkpt lat="44.4648" lon="5.01116">
        <ele>626.436279</ele>
        <time>2011-02-20T12:17:40Z</time>
      </trkpt>
      <trkpt lat="44.46476" lon="5.01117">
        <ele>626.436279</ele>
        <time>2011-02-20T12:17:44Z</time>
      </trkpt>
      <trkpt lat="44.46474" lon="5.01119">
        <ele>625.955566</ele>
        <time>2011-02-20T12:17:46Z</time>
      </trkpt>
      <trkpt lat="44.4647" lon="5.01126">
        <ele>624.513672</ele>
        <time>2011-02-20T12:17:52Z</time>
      </trkpt>
      <trkpt lat="44.46469" lon="5.01129">
        <ele>623.55249</ele>
        <time>2011-02-20T12:17:54Z</time>
      </trkpt>
      <trkpt lat="44.46455" lon="5.01125">
        <ele>621.629639</ele>
        <time>2011-02-20T12:18:12Z</time>
      </trkpt>
      <trkpt lat="44.46448" lon="5.01117">
        <ele>619.226318</ele>
        <time>2011-02-20T12:18:24Z</time>
      </trkpt>
      <trkpt lat="44.46441" lon="5.01115">
        <ele>616.342285</ele>
        <time>2011-02-20T12:18:32Z</time>
      </trkpt>
      <trkpt lat="44.46436" lon="5.01116">
        <ele>615.861816</ele>
        <time>2011-02-20T12:18:37Z</time>
      </trkpt>
      <trkpt lat="44.46423" lon="5.01131">
        <ele>612.977783</ele>
        <time>2011-02-20T12:18:53Z</time>
      </trkpt>
      <trkpt lat="44.46412" lon="5.01139">
        <ele>611.055176</ele>
        <time>2011-02-20T12:19:08Z</time>
      </trkpt>
      <trkpt lat="44.46404" lon="5.01141">
        <ele>610.574463</ele>
        <time>2011-02-20T12:19:18Z</time>
      </trkpt>
      <trkpt lat="44.46388" lon="5.01151">
        <ele>607.690674</ele>
        <time>2011-02-20T12:19:35Z</time>
      </trkpt>
      <trkpt lat="44.46373" lon="5.01159">
        <ele>604.806641</ele>
        <time>2011-02-20T12:19:54Z</time>
      </trkpt>
      <trkpt lat="44.46368" lon="5.01172">
        <ele>602.883789</ele>
        <time>2011-02-20T12:20:11Z</time>
      </trkpt>
      <trkpt lat="44.46364" lon="5.0118">
        <ele>600</ele>
        <time>2011-02-20T12:20:20Z</time>
      </trkpt>
      <trkpt lat="44.46359" lon="5.01183">
        <ele>600</ele>
        <time>2011-02-20T12:20:26Z</time>
      </trkpt>
      <trkpt lat="44.46344" lon="5.01189">
        <ele>597.59668</ele>
        <time>2011-02-20T12:20:41Z</time>
      </trkpt>
      <trkpt lat="44.46344" lon="5.01188">
        <ele>597.115967</ele>
        <time>2011-02-20T12:20:42Z</time>
      </trkpt>
      <trkpt lat="44.46333" lon="5.01186">
        <ele>594.232178</ele>
        <time>2011-02-20T12:20:58Z</time>
      </trkpt>
      <trkpt lat="44.46322" lon="5.01184">
        <ele>590.867432</ele>
        <time>2011-02-20T12:21:11Z</time>
      </trkpt>
      <trkpt lat="44.46311" lon="5.01184">
        <ele>587.502686</ele>
        <time>2011-02-20T12:21:24Z</time>
      </trkpt>
      <trkpt lat="44.46309" lon="5.01185">
        <ele>587.502686</ele>
        <time>2011-02-20T12:21:26Z</time>
      </trkpt>
      <trkpt lat="44.46297" lon="5.01188">
        <ele>584.618896</ele>
        <time>2011-02-20T12:21:40Z</time>
      </trkpt>
      <trkpt lat="44.46289" lon="5.01197">
        <ele>582.696289</ele>
        <time>2011-02-20T12:21:55Z</time>
      </trkpt>
      <trkpt lat="44.46279" lon="5.01203">
        <ele>579.331543</ele>
        <time>2011-02-20T12:22:08Z</time>
      </trkpt>
      <trkpt lat="44.46279" lon="5.01202">
        <ele>578.851074</ele>
        <time>2011-02-20T12:22:09Z</time>
      </trkpt>
      <trkpt lat="44.46276" lon="5.01203">
        <ele>577.40918</ele>
        <time>2011-02-20T12:22:23Z</time>
      </trkpt>
      <trkpt lat="44.4627" lon="5.01202">
        <ele>575.967041</ele>
        <time>2011-02-20T12:22:48Z</time>
      </trkpt>
      <trkpt lat="44.46267" lon="5.01203">
        <ele>575.486328</ele>
        <time>2011-02-20T12:23:10Z</time>
      </trkpt>
      <trkpt lat="44.46262" lon="5.01202">
        <ele>571.1604</ele>
        <time>2011-02-20T12:26:10Z</time>
      </trkpt>
      <trkpt lat="44.46262" lon="5.01202">
        <ele>578.370361</ele>
        <time>2011-02-20T12:26:11Z</time>
      </trkpt>
      <trkpt lat="44.46262" lon="5.01202">
        <ele>575.486328</ele>
        <time>2011-02-20T12:26:15Z</time>
      </trkpt>
      <trkpt lat="44.46262" lon="5.01204">
        <ele>579.331543</ele>
        <time>2011-02-20T12:31:37Z</time>
      </trkpt>
      <trkpt lat="44.46262" lon="5.01204">
        <ele>577.889648</ele>
        <time>2011-02-20T12:31:38Z</time>
      </trkpt>
      <trkpt lat="44.46262" lon="5.01204">
        <ele>577.40918</ele>
        <time>2011-02-20T12:31:40Z</time>
      </trkpt>
      <trkpt lat="44.46261" lon="5.01203">
        <ele>579.812256</ele>
        <time>2011-02-20T12:38:31Z</time>
      </trkpt>
      <trkpt lat="44.46261" lon="5.01203">
        <ele>580.773682</ele>
        <time>2011-02-20T12:43:20Z</time>
      </trkpt>
      <trkpt lat="44.46261" lon="5.01203">
        <ele>581.254395</ele>
        <time>2011-02-20T12:43:46Z</time>
      </trkpt>
      <trkpt lat="44.46261" lon="5.01203">
        <ele>579.812256</ele>
        <time>2011-02-20T12:44:04Z</time>
      </trkpt>
      <trkpt lat="44.4626" lon="5.01204">
        <ele>576.447754</ele>
        <time>2011-02-20T12:50:18Z</time>
      </trkpt>
      <trkpt lat="44.4626" lon="5.01204">
        <ele>581.734863</ele>
        <time>2011-02-20T12:50:19Z</time>
      </trkpt>
      <trkpt lat="44.46266" lon="5.01203">
        <ele>582.696289</ele>
        <time>2011-02-20T12:53:39Z</time>
      </trkpt>
      <trkpt lat="44.46265" lon="5.01206">
        <ele>581.254395</ele>
        <time>2011-02-20T12:53:49Z</time>
      </trkpt>
      <trkpt lat="44.46265" lon="5.01207">
        <ele>584.618896</ele>
        <time>2011-02-20T12:54:04Z</time>
      </trkpt>
      <trkpt lat="44.46265" lon="5.01207">
        <ele>582.215576</ele>
        <time>2011-02-20T12:54:09Z</time>
      </trkpt>
      <trkpt lat="44.46265" lon="5.01215">
        <ele>582.215576</ele>
        <time>2011-02-20T12:54:58Z</time>
      </trkpt>
      <trkpt lat="44.46256" lon="5.01211">
        <ele>579.812256</ele>
        <time>2011-02-20T12:55:35Z</time>
      </trkpt>
      <trkpt lat="44.46255" lon="5.0121">
        <ele>578.851074</ele>
        <time>2011-02-20T12:55:41Z</time>
      </trkpt>
      <trkpt lat="44.46239" lon="5.01216">
        <ele>575.486328</ele>
        <time>2011-02-20T12:55:54Z</time>
      </trkpt>
      <trkpt lat="44.46233" lon="5.01217">
        <ele>575.005859</ele>
        <time>2011-02-20T12:55:59Z</time>
      </trkpt>
      <trkpt lat="44.46227" lon="5.01218">
        <ele>574.044434</ele>
        <time>2011-02-20T12:56:05Z</time>
      </trkpt>
      <trkpt lat="44.46212" lon="5.01224">
        <ele>571.1604</ele>
        <time>2011-02-20T12:56:20Z</time>
      </trkpt>
      <trkpt lat="44.46197" lon="5.0123">
        <ele>568.276367</ele>
        <time>2011-02-20T12:56:36Z</time>
      </trkpt>
      <trkpt lat="44.46187" lon="5.0124">
        <ele>566.35376</ele>
        <time>2011-02-20T12:56:50Z</time>
      </trkpt>
      <trkpt lat="44.46186" lon="5.0124">
        <ele>566.35376</ele>
        <time>2011-02-20T12:56:53Z</time>
      </trkpt>
      <trkpt lat="44.46165" lon="5.01245">
        <ele>562.989258</ele>
        <time>2011-02-20T12:57:11Z</time>
      </trkpt>
      <trkpt lat="44.46157" lon="5.01242">
        <ele>560.105225</ele>
        <time>2011-02-20T12:57:22Z</time>
      </trkpt>
      <trkpt lat="44.46139" lon="5.01248">
        <ele>556.740723</ele>
        <time>2011-02-20T12:57:36Z</time>
      </trkpt>
      <trkpt lat="44.46118" lon="5.01253">
        <ele>555.779297</ele>
        <time>2011-02-20T12:57:54Z</time>
      </trkpt>
      <trkpt lat="44.46103" lon="5.01256">
        <ele>552.895264</ele>
        <time>2011-02-20T12:58:13Z</time>
      </trkpt>
      <trkpt lat="44.46099" lon="5.01256">
        <ele>551.934082</ele>
        <time>2011-02-20T12:58:17Z</time>
      </trkpt>
      <trkpt lat="44.46097" lon="5.01257">
        <ele>551.453369</ele>
        <time>2011-02-20T12:58:20Z</time>
      </trkpt>
      <trkpt lat="44.46078" lon="5.0126">
        <ele>550.492188</ele>
        <time>2011-02-20T12:58:35Z</time>
      </trkpt>
      <trkpt lat="44.46076" lon="5.0126">
        <ele>550.492188</ele>
        <time>2011-02-20T12:58:37Z</time>
      </trkpt>
      <trkpt lat="44.46074" lon="5.01258">
        <ele>550.011475</ele>
        <time>2011-02-20T12:58:39Z</time>
      </trkpt>
      <trkpt lat="44.46058" lon="5.01262">
        <ele>548.569336</ele>
        <time>2011-02-20T12:58:53Z</time>
      </trkpt>
      <trkpt lat="44.46055" lon="5.01263">
        <ele>548.569336</ele>
        <time>2011-02-20T12:58:56Z</time>
      </trkpt>
      <trkpt lat="44.46049" lon="5.01265">
        <ele>548.569336</ele>
        <time>2011-02-20T12:59:01Z</time>
      </trkpt>
      <trkpt lat="44.46029" lon="5.01274">
        <ele>545.204834</ele>
        <time>2011-02-20T12:59:19Z</time>
      </trkpt>
      <trkpt lat="44.46027" lon="5.01275">
        <ele>544.724243</ele>
        <time>2011-02-20T12:59:21Z</time>
      </trkpt>
      <trkpt lat="44.46009" lon="5.01282">
        <ele>541.84021</ele>
        <time>2011-02-20T12:59:41Z</time>
      </trkpt>
      <trkpt lat="44.45993" lon="5.01284">
        <ele>539.917603</ele>
        <time>2011-02-20T12:59:57Z</time>
      </trkpt>
      <trkpt lat="44.45978" lon="5.01284">
        <ele>537.033691</ele>
        <time>2011-02-20T13:00:14Z</time>
      </trkpt>
      <trkpt lat="44.45967" lon="5.01282">
        <ele>533.668945</ele>
        <time>2011-02-20T13:00:27Z</time>
      </trkpt>
      <trkpt lat="44.45962" lon="5.01278">
        <ele>531.746338</ele>
        <time>2011-02-20T13:00:36Z</time>
      </trkpt>
      <trkpt lat="44.45954" lon="5.01273">
        <ele>528.381836</ele>
        <time>2011-02-20T13:00:50Z</time>
      </trkpt>
      <trkpt lat="44.45954" lon="5.01261">
        <ele>526.459106</ele>
        <time>2011-02-20T13:01:02Z</time>
      </trkpt>
      <trkpt lat="44.45958" lon="5.01255">
        <ele>524.536499</ele>
        <time>2011-02-20T13:01:10Z</time>
      </trkpt>
      <trkpt lat="44.45951" lon="5.01238">
        <ele>521.652588</ele>
        <time>2011-02-20T13:01:24Z</time>
      </trkpt>
      <trkpt lat="44.45947" lon="5.01239">
        <ele>519.729858</ele>
        <time>2011-02-20T13:01:30Z</time>
      </trkpt>
      <trkpt lat="44.45935" lon="5.01231">
        <ele>516.845947</ele>
        <time>2011-02-20T13:01:48Z</time>
      </trkpt>
      <trkpt lat="44.45936" lon="5.01219">
        <ele>513.962036</ele>
        <time>2011-02-20T13:02:02Z</time>
      </trkpt>
      <trkpt lat="44.45925" lon="5.01217">
        <ele>512.52002</ele>
        <time>2011-02-20T13:02:14Z</time>
      </trkpt>
      <trkpt lat="44.45908" lon="5.01221">
        <ele>509.155396</ele>
        <time>2011-02-20T13:02:32Z</time>
      </trkpt>
      <trkpt lat="44.45902" lon="5.01218">
        <ele>507.713501</ele>
        <time>2011-02-20T13:02:40Z</time>
      </trkpt>
      <trkpt lat="44.45894" lon="5.01216">
        <ele>506.271484</ele>
        <time>2011-02-20T13:02:48Z</time>
      </trkpt>
      <trkpt lat="44.45882" lon="5.01215">
        <ele>503.387451</ele>
        <time>2011-02-20T13:03:00Z</time>
      </trkpt>
      <trkpt lat="44.45878" lon="5.01213">
        <ele>502.426147</ele>
        <time>2011-02-20T13:03:04Z</time>
      </trkpt>
      <trkpt lat="44.45873" lon="5.01209">
        <ele>500.984131</ele>
        <time>2011-02-20T13:03:11Z</time>
      </trkpt>
      <trkpt lat="44.45862" lon="5.01202">
        <ele>498.100342</ele>
        <time>2011-02-20T13:03:28Z</time>
      </trkpt>
      <trkpt lat="44.45861" lon="5.01192">
        <ele>494.735596</ele>
        <time>2011-02-20T13:03:41Z</time>
      </trkpt>
      <trkpt lat="44.45851" lon="5.01187">
        <ele>492.812988</ele>
        <time>2011-02-20T13:03:55Z</time>
      </trkpt>
      <trkpt lat="44.45843" lon="5.01189">
        <ele>490.40979</ele>
        <time>2011-02-20T13:04:09Z</time>
      </trkpt>
      <trkpt lat="44.45835" lon="5.01181">
        <ele>487.525635</ele>
        <time>2011-02-20T13:04:23Z</time>
      </trkpt>
      <trkpt lat="44.45832" lon="5.01171">
        <ele>485.603027</ele>
        <time>2011-02-20T13:04:35Z</time>
      </trkpt>
      <trkpt lat="44.45827" lon="5.0115">
        <ele>483.199829</ele>
        <time>2011-02-20T13:04:52Z</time>
      </trkpt>
      <trkpt lat="44.45823" lon="5.01122">
        <ele>480.796631</ele>
        <time>2011-02-20T13:05:14Z</time>
      </trkpt>
      <trkpt lat="44.4581" lon="5.011">
        <ele>478.393188</ele>
        <time>2011-02-20T13:05:31Z</time>
      </trkpt>
      <trkpt lat="44.45807" lon="5.01097">
        <ele>478.873901</ele>
        <time>2011-02-20T13:05:36Z</time>
      </trkpt>
      <trkpt lat="44.45792" lon="5.01091">
        <ele>476.951294</ele>
        <time>2011-02-20T13:05:52Z</time>
      </trkpt>
      <trkpt lat="44.45785" lon="5.01083">
        <ele>474.547974</ele>
        <time>2011-02-20T13:06:05Z</time>
      </trkpt>
      <trkpt lat="44.45775" lon="5.01071">
        <ele>471.66394</ele>
        <time>2011-02-20T13:06:22Z</time>
      </trkpt>
      <trkpt lat="44.45757" lon="5.01067">
        <ele>468.299316</ele>
        <time>2011-02-20T13:06:39Z</time>
      </trkpt>
      <trkpt lat="44.45756" lon="5.01067">
        <ele>468.299316</ele>
        <time>2011-02-20T13:06:40Z</time>
      </trkpt>
      <trkpt lat="44.45744" lon="5.01075">
        <ele>466.857422</ele>
        <time>2011-02-20T13:06:52Z</time>
      </trkpt>
      <trkpt lat="44.45735" lon="5.01082">
        <ele>465.896118</ele>
        <time>2011-02-20T13:07:00Z</time>
      </trkpt>
      <trkpt lat="44.45719" lon="5.01092">
        <ele>463.973389</ele>
        <time>2011-02-20T13:07:14Z</time>
      </trkpt>
      <trkpt lat="44.45706" lon="5.01101">
        <ele>463.012085</ele>
        <time>2011-02-20T13:07:29Z</time>
      </trkpt>
      <trkpt lat="44.4569" lon="5.01109">
        <ele>461.57019</ele>
        <time>2011-02-20T13:07:47Z</time>
      </trkpt>
      <trkpt lat="44.45685" lon="5.01111">
        <ele>461.089478</ele>
        <time>2011-02-20T13:07:51Z</time>
      </trkpt>
      <trkpt lat="44.45666" lon="5.011">
        <ele>458.205566</ele>
        <time>2011-02-20T13:08:12Z</time>
      </trkpt>
      <trkpt lat="44.45664" lon="5.01098">
        <ele>456.76355</ele>
        <time>2011-02-20T13:08:40Z</time>
      </trkpt>
      <trkpt lat="44.45654" lon="5.01103">
        <ele>455.321533</ele>
        <time>2011-02-20T13:09:39Z</time>
      </trkpt>
      <trkpt lat="44.45656" lon="5.0112">
        <ele>455.321533</ele>
        <time>2011-02-20T13:09:55Z</time>
      </trkpt>
      <trkpt lat="44.45652" lon="5.01126">
        <ele>452.918213</ele>
        <time>2011-02-20T13:10:09Z</time>
      </trkpt>
      <trkpt lat="44.45645" lon="5.01131">
        <ele>450.515015</ele>
        <time>2011-02-20T13:10:20Z</time>
      </trkpt>
      <trkpt lat="44.45646" lon="5.0114">
        <ele>447.630981</ele>
        <time>2011-02-20T13:10:33Z</time>
      </trkpt>
      <trkpt lat="44.45645" lon="5.01152">
        <ele>444.266479</ele>
        <time>2011-02-20T13:10:45Z</time>
      </trkpt>
      <trkpt lat="44.45642" lon="5.01163">
        <ele>440.901855</ele>
        <time>2011-02-20T13:11:02Z</time>
      </trkpt>
      <trkpt lat="44.4564" lon="5.01167">
        <ele>438.979126</ele>
        <time>2011-02-20T13:11:23Z</time>
      </trkpt>
      <trkpt lat="44.4564" lon="5.01172">
        <ele>437.537109</ele>
        <time>2011-02-20T13:11:37Z</time>
      </trkpt>
      <trkpt lat="44.45636" lon="5.01174">
        <ele>434.172607</ele>
        <time>2011-02-20T13:11:54Z</time>
      </trkpt>
      <trkpt lat="44.45635" lon="5.0118">
        <ele>432.730713</ele>
        <time>2011-02-20T13:12:13Z</time>
      </trkpt>
      <trkpt lat="44.4563" lon="5.01183">
        <ele>429.365967</ele>
        <time>2011-02-20T13:12:27Z</time>
      </trkpt>
      <trkpt lat="44.4563" lon="5.01188">
        <ele>427.443359</ele>
        <time>2011-02-20T13:12:47Z</time>
      </trkpt>
      <trkpt lat="44.45629" lon="5.01192">
        <ele>425.040161</ele>
        <time>2011-02-20T13:13:06Z</time>
      </trkpt>
      <trkpt lat="44.45626" lon="5.01193">
        <ele>423.598022</ele>
        <time>2011-02-20T13:13:27Z</time>
      </trkpt>
      <trkpt lat="44.45622" lon="5.01196">
        <ele>421.194824</ele>
        <time>2011-02-20T13:13:49Z</time>
      </trkpt>
      <trkpt lat="44.45621" lon="5.01205">
        <ele>417.8302</ele>
        <time>2011-02-20T13:14:04Z</time>
      </trkpt>
      <trkpt lat="44.45625" lon="5.01216">
        <ele>416.388184</ele>
        <time>2011-02-20T13:14:18Z</time>
      </trkpt>
      <trkpt lat="44.45624" lon="5.01223">
        <ele>414.465454</ele>
        <time>2011-02-20T13:14:29Z</time>
      </trkpt>
      <trkpt lat="44.45624" lon="5.01233">
        <ele>412.542847</ele>
        <time>2011-02-20T13:14:38Z</time>
      </trkpt>
      <trkpt lat="44.45624" lon="5.01236">
        <ele>412.062256</ele>
        <time>2011-02-20T13:14:40Z</time>
      </trkpt>
      <trkpt lat="44.45625" lon="5.01251">
        <ele>410.139648</ele>
        <time>2011-02-20T13:14:54Z</time>
      </trkpt>
      <trkpt lat="44.45625" lon="5.01262">
        <ele>407.255615</ele>
        <time>2011-02-20T13:15:01Z</time>
      </trkpt>
      <trkpt lat="44.4562" lon="5.0127">
        <ele>404.371704</ele>
        <time>2011-02-20T13:15:11Z</time>
      </trkpt>
      <trkpt lat="44.45619" lon="5.01274">
        <ele>402.929688</ele>
        <time>2011-02-20T13:15:18Z</time>
      </trkpt>
      <trkpt lat="44.45617" lon="5.01283">
        <ele>400.045898</ele>
        <time>2011-02-20T13:15:36Z</time>
      </trkpt>
      <trkpt lat="44.4561" lon="5.01278">
        <ele>398.60376</ele>
        <time>2011-02-20T13:15:55Z</time>
      </trkpt>
      <trkpt lat="44.45609" lon="5.01284">
        <ele>396.681152</ele>
        <time>2011-02-20T13:16:04Z</time>
      </trkpt>
      <trkpt lat="44.45611" lon="5.01289">
        <ele>396.200562</ele>
        <time>2011-02-20T13:16:08Z</time>
      </trkpt>
      <trkpt lat="44.45614" lon="5.01304">
        <ele>395.239136</ele>
        <time>2011-02-20T13:16:25Z</time>
      </trkpt>
      <trkpt lat="44.45612" lon="5.01312">
        <ele>392.355347</ele>
        <time>2011-02-20T13:16:40Z</time>
      </trkpt>
      <trkpt lat="44.45609" lon="5.01318">
        <ele>388.990601</ele>
        <time>2011-02-20T13:16:57Z</time>
      </trkpt>
      <trkpt lat="44.45606" lon="5.01324">
        <ele>387.067993</ele>
        <time>2011-02-20T13:17:11Z</time>
      </trkpt>
      <trkpt lat="44.45604" lon="5.0133">
        <ele>384.184082</ele>
        <time>2011-02-20T13:17:23Z</time>
      </trkpt>
      <trkpt lat="44.45599" lon="5.01332">
        <ele>380.819458</ele>
        <time>2011-02-20T13:17:39Z</time>
      </trkpt>
      <trkpt lat="44.45597" lon="5.01331">
        <ele>380.338745</ele>
        <time>2011-02-20T13:17:57Z</time>
      </trkpt>
      <trkpt lat="44.45598" lon="5.01335">
        <ele>379.858032</ele>
        <time>2011-02-20T13:18:17Z</time>
      </trkpt>
      <trkpt lat="44.45595" lon="5.01342">
        <ele>378.416138</ele>
        <time>2011-02-20T13:18:31Z</time>
      </trkpt>
      <trkpt lat="44.45596" lon="5.01349">
        <ele>376.012817</ele>
        <time>2011-02-20T13:18:55Z</time>
      </trkpt>
      <trkpt lat="44.45594" lon="5.01355">
        <ele>373.609497</ele>
        <time>2011-02-20T13:19:10Z</time>
      </trkpt>
      <trkpt lat="44.45593" lon="5.01363">
        <ele>370.725586</ele>
        <time>2011-02-20T13:19:34Z</time>
      </trkpt>
      <trkpt lat="44.45591" lon="5.01375">
        <ele>367.841553</ele>
        <time>2011-02-20T13:19:51Z</time>
      </trkpt>
      <trkpt lat="44.45589" lon="5.01381">
        <ele>364.957642</ele>
        <time>2011-02-20T13:20:07Z</time>
      </trkpt>
      <trkpt lat="44.45592" lon="5.01394">
        <ele>362.554321</ele>
        <time>2011-02-20T13:20:23Z</time>
      </trkpt>
      <trkpt lat="44.45587" lon="5.01402">
        <ele>359.189697</ele>
        <time>2011-02-20T13:20:39Z</time>
      </trkpt>
      <trkpt lat="44.45583" lon="5.01412">
        <ele>356.305786</ele>
        <time>2011-02-20T13:20:59Z</time>
      </trkpt>
      <trkpt lat="44.45579" lon="5.01418">
        <ele>353.421875</ele>
        <time>2011-02-20T13:21:22Z</time>
      </trkpt>
      <trkpt lat="44.45578" lon="5.0142">
        <ele>352.460571</ele>
        <time>2011-02-20T13:21:24Z</time>
      </trkpt>
      <trkpt lat="44.45572" lon="5.01426">
        <ele>349.576538</ele>
        <time>2011-02-20T13:21:35Z</time>
      </trkpt>
      <trkpt lat="44.45568" lon="5.01434">
        <ele>346.692627</ele>
        <time>2011-02-20T13:21:51Z</time>
      </trkpt>
      <trkpt lat="44.45563" lon="5.01441">
        <ele>343.327881</ele>
        <time>2011-02-20T13:22:04Z</time>
      </trkpt>
      <trkpt lat="44.45557" lon="5.01445">
        <ele>339.963379</ele>
        <time>2011-02-20T13:22:14Z</time>
      </trkpt>
      <trkpt lat="44.45558" lon="5.01452">
        <ele>339.002075</ele>
        <time>2011-02-20T13:22:25Z</time>
      </trkpt>
      <trkpt lat="44.45552" lon="5.01463">
        <ele>336.118164</ele>
        <time>2011-02-20T13:22:41Z</time>
      </trkpt>
      <trkpt lat="44.45547" lon="5.01473">
        <ele>332.75354</ele>
        <time>2011-02-20T13:22:52Z</time>
      </trkpt>
      <trkpt lat="44.45543" lon="5.01481">
        <ele>329.869507</ele>
        <time>2011-02-20T13:23:01Z</time>
      </trkpt>
      <trkpt lat="44.45535" lon="5.01492">
        <ele>326.985596</ele>
        <time>2011-02-20T13:23:18Z</time>
      </trkpt>
      <trkpt lat="44.45528" lon="5.01506">
        <ele>323.620972</ele>
        <time>2011-02-20T13:23:32Z</time>
      </trkpt>
      <trkpt lat="44.45525" lon="5.0152">
        <ele>320.737061</ele>
        <time>2011-02-20T13:23:47Z</time>
      </trkpt>
      <trkpt lat="44.45524" lon="5.01523">
        <ele>319.775635</ele>
        <time>2011-02-20T13:24:10Z</time>
      </trkpt>
      <trkpt lat="44.45521" lon="5.01527">
        <ele>319.295044</ele>
        <time>2011-02-20T13:24:26Z</time>
      </trkpt>
      <trkpt lat="44.45522" lon="5.01527">
        <ele>318.333618</ele>
        <time>2011-02-20T13:25:27Z</time>
      </trkpt>
      <trkpt lat="44.45521" lon="5.01527">
        <ele>318.814331</ele>
        <time>2011-02-20T13:26:20Z</time>
      </trkpt>
      <trkpt lat="44.45518" lon="5.01529">
        <ele>318.333618</ele>
        <time>2011-02-20T13:28:22Z</time>
      </trkpt>
      <trkpt lat="44.45522" lon="5.01533">
        <ele>318.814331</ele>
        <time>2011-02-20T13:28:42Z</time>
      </trkpt>
      <trkpt lat="44.45545" lon="5.01542">
        <ele>318.814331</ele>
        <time>2011-02-20T13:29:03Z</time>
      </trkpt>
      <trkpt lat="44.45546" lon="5.01542">
        <ele>318.814331</ele>
        <time>2011-02-20T13:29:04Z</time>
      </trkpt>
      <trkpt lat="44.45551" lon="5.01549">
        <ele>319.775635</ele>
        <time>2011-02-20T13:29:09Z</time>
      </trkpt>
      <trkpt lat="44.45552" lon="5.01551">
        <ele>318.814331</ele>
        <time>2011-02-20T13:29:11Z</time>
      </trkpt>
      <trkpt lat="44.45563" lon="5.01559">
        <ele>320.256348</ele>
        <time>2011-02-20T13:29:21Z</time>
      </trkpt>
      <trkpt lat="44.45565" lon="5.01559">
        <ele>319.775635</ele>
        <time>2011-02-20T13:29:23Z</time>
      </trkpt>
      <trkpt lat="44.45572" lon="5.01566">
        <ele>318.814331</ele>
        <time>2011-02-20T13:29:30Z</time>
      </trkpt>
      <trkpt lat="44.45574" lon="5.01567">
        <ele>318.814331</ele>
        <time>2011-02-20T13:29:32Z</time>
      </trkpt>
      <trkpt lat="44.45587" lon="5.01572">
        <ele>317.853027</ele>
        <time>2011-02-20T13:29:43Z</time>
      </trkpt>
      <trkpt lat="44.45594" lon="5.01578">
        <ele>318.333618</ele>
        <time>2011-02-20T13:29:49Z</time>
      </trkpt>
      <trkpt lat="44.45602" lon="5.01594">
        <ele>318.814331</ele>
        <time>2011-02-20T13:29:59Z</time>
      </trkpt>
      <trkpt lat="44.45622" lon="5.01604">
        <ele>316.891724</ele>
        <time>2011-02-20T13:30:19Z</time>
      </trkpt>
      <trkpt lat="44.45634" lon="5.01599">
        <ele>315.93042</ele>
        <time>2011-02-20T13:30:32Z</time>
      </trkpt>
      <trkpt lat="44.45649" lon="5.0159">
        <ele>317.372437</ele>
        <time>2011-02-20T13:30:45Z</time>
      </trkpt>
      <trkpt lat="44.45669" lon="5.01592">
        <ele>319.295044</ele>
        <time>2011-02-20T13:31:04Z</time>
      </trkpt>
      <trkpt lat="44.45683" lon="5.01592">
        <ele>320.256348</ele>
        <time>2011-02-20T13:31:23Z</time>
      </trkpt>
      <trkpt lat="44.45696" lon="5.01595">
        <ele>321.698364</ele>
        <time>2011-02-20T13:31:38Z</time>
      </trkpt>
      <trkpt lat="44.45711" lon="5.01602">
        <ele>323.140381</ele>
        <time>2011-02-20T13:31:55Z</time>
      </trkpt>
      <trkpt lat="44.4573" lon="5.01616">
        <ele>322.659668</ele>
        <time>2011-02-20T13:32:14Z</time>
      </trkpt>
      <trkpt lat="44.45756" lon="5.01615">
        <ele>322.659668</ele>
        <time>2011-02-20T13:32:35Z</time>
      </trkpt>
      <trkpt lat="44.45777" lon="5.01621">
        <ele>321.217773</ele>
        <time>2011-02-20T13:32:54Z</time>
      </trkpt>
      <trkpt lat="44.4579" lon="5.01627">
        <ele>323.140381</ele>
        <time>2011-02-20T13:33:06Z</time>
      </trkpt>
      <trkpt lat="44.45814" lon="5.01644">
        <ele>323.620972</ele>
        <time>2011-02-20T13:33:27Z</time>
      </trkpt>
      <trkpt lat="44.45833" lon="5.01656">
        <ele>322.178955</ele>
        <time>2011-02-20T13:33:47Z</time>
      </trkpt>
      <trkpt lat="44.45848" lon="5.01658">
        <ele>320.737061</ele>
        <time>2011-02-20T13:33:58Z</time>
      </trkpt>
      <trkpt lat="44.45853" lon="5.01659">
        <ele>320.737061</ele>
        <time>2011-02-20T13:34:02Z</time>
      </trkpt>
      <trkpt lat="44.45857" lon="5.01663">
        <ele>321.217773</ele>
        <time>2011-02-20T13:34:07Z</time>
      </trkpt>
      <trkpt lat="44.4586" lon="5.01666">
        <ele>321.217773</ele>
        <time>2011-02-20T13:34:11Z</time>
      </trkpt>
      <trkpt lat="44.45886" lon="5.0168">
        <ele>320.737061</ele>
        <time>2011-02-20T13:34:33Z</time>
      </trkpt>
      <trkpt lat="44.45892" lon="5.01682">
        <ele>320.737061</ele>
        <time>2011-02-20T13:34:40Z</time>
      </trkpt>
      <trkpt lat="44.45898" lon="5.01681">
        <ele>321.698364</ele>
        <time>2011-02-20T13:34:45Z</time>
      </trkpt>
      <trkpt lat="44.45904" lon="5.01683">
        <ele>322.178955</ele>
        <time>2011-02-20T13:34:51Z</time>
      </trkpt>
      <trkpt lat="44.45918" lon="5.01689">
        <ele>321.698364</ele>
        <time>2011-02-20T13:35:03Z</time>
      </trkpt>
      <trkpt lat="44.45939" lon="5.01705">
        <ele>321.217773</ele>
        <time>2011-02-20T13:35:21Z</time>
      </trkpt>
      <trkpt lat="44.45956" lon="5.01714">
        <ele>320.737061</ele>
        <time>2011-02-20T13:35:37Z</time>
      </trkpt>
      <trkpt lat="44.45972" lon="5.01742">
        <ele>318.333618</ele>
        <time>2011-02-20T13:36:00Z</time>
      </trkpt>
      <trkpt lat="44.45972" lon="5.01743">
        <ele>318.333618</ele>
        <time>2011-02-20T13:36:01Z</time>
      </trkpt>
      <trkpt lat="44.45981" lon="5.01751">
        <ele>314.969116</ele>
        <time>2011-02-20T13:36:12Z</time>
      </trkpt>
      <trkpt lat="44.45987" lon="5.01755">
        <ele>314.488403</ele>
        <time>2011-02-20T13:36:18Z</time>
      </trkpt>
      <trkpt lat="44.45994" lon="5.0176">
        <ele>312.565796</ele>
        <time>2011-02-20T13:36:24Z</time>
      </trkpt>
      <trkpt lat="44.46002" lon="5.01763">
        <ele>313.046509</ele>
        <time>2011-02-20T13:36:31Z</time>
      </trkpt>
      <trkpt lat="44.46026" lon="5.01766">
        <ele>315.449829</ele>
        <time>2011-02-20T13:36:54Z</time>
      </trkpt>
      <trkpt lat="44.46045" lon="5.01771">
        <ele>315.449829</ele>
        <time>2011-02-20T13:37:12Z</time>
      </trkpt>
      <trkpt lat="44.46061" lon="5.01772">
        <ele>315.449829</ele>
        <time>2011-02-20T13:37:27Z</time>
      </trkpt>
      <trkpt lat="44.46076" lon="5.01773">
        <ele>314.007813</ele>
        <time>2011-02-20T13:37:39Z</time>
      </trkpt>
      <trkpt lat="44.46095" lon="5.01777">
        <ele>314.488403</ele>
        <time>2011-02-20T13:37:56Z</time>
      </trkpt>
      <trkpt lat="44.46099" lon="5.01777">
        <ele>314.488403</ele>
        <time>2011-02-20T13:38:00Z</time>
      </trkpt>
      <trkpt lat="44.4612" lon="5.01779">
        <ele>314.488403</ele>
        <time>2011-02-20T13:38:17Z</time>
      </trkpt>
      <trkpt lat="44.46126" lon="5.01782">
        <ele>314.007813</ele>
        <time>2011-02-20T13:38:22Z</time>
      </trkpt>
      <trkpt lat="44.4613" lon="5.01786">
        <ele>314.488403</ele>
        <time>2011-02-20T13:38:27Z</time>
      </trkpt>
      <trkpt lat="44.46156" lon="5.01796">
        <ele>313.527222</ele>
        <time>2011-02-20T13:38:49Z</time>
      </trkpt>
      <trkpt lat="44.46163" lon="5.01799">
        <ele>314.969116</ele>
        <time>2011-02-20T13:38:56Z</time>
      </trkpt>
      <trkpt lat="44.46179" lon="5.01806">
        <ele>314.969116</ele>
        <time>2011-02-20T13:39:11Z</time>
      </trkpt>
      <trkpt lat="44.46182" lon="5.01807">
        <ele>314.969116</ele>
        <time>2011-02-20T13:39:14Z</time>
      </trkpt>
      <trkpt lat="44.46197" lon="5.01816">
        <ele>315.93042</ele>
        <time>2011-02-20T13:39:30Z</time>
      </trkpt>
      <trkpt lat="44.46213" lon="5.01824">
        <ele>315.93042</ele>
        <time>2011-02-20T13:39:53Z</time>
      </trkpt>
      <trkpt lat="44.46213" lon="5.01822">
        <ele>314.969116</ele>
        <time>2011-02-20T13:40:21Z</time>
      </trkpt>
      <trkpt lat="44.46213" lon="5.01823">
        <ele>317.372437</ele>
        <time>2011-02-20T13:40:38Z</time>
      </trkpt>
      <trkpt lat="44.46213" lon="5.01823">
        <ele>314.969116</ele>
        <time>2011-02-20T13:40:45Z</time>
      </trkpt>
      <trkpt lat="44.46216" lon="5.01823">
        <ele>315.449829</ele>
        <time>2011-02-20T13:41:11Z</time>
      </trkpt>
      <trkpt lat="44.4623" lon="5.01827">
        <ele>314.969116</ele>
        <time>2011-02-20T13:41:31Z</time>
      </trkpt>
      <trkpt lat="44.4624" lon="5.01826">
        <ele>314.007813</ele>
        <time>2011-02-20T13:41:43Z</time>
      </trkpt>
      <trkpt lat="44.46244" lon="5.01824">
        <ele>314.007813</ele>
        <time>2011-02-20T13:41:47Z</time>
      </trkpt>
      <trkpt lat="44.46256" lon="5.01823">
        <ele>314.969116</ele>
        <time>2011-02-20T13:41:56Z</time>
      </trkpt>
      <trkpt lat="44.46262" lon="5.0182">
        <ele>314.969116</ele>
        <time>2011-02-20T13:42:02Z</time>
      </trkpt>
      <trkpt lat="44.46279" lon="5.01815">
        <ele>314.007813</ele>
        <time>2011-02-20T13:42:16Z</time>
      </trkpt>
      <trkpt lat="44.46298" lon="5.0181">
        <ele>314.488403</ele>
        <time>2011-02-20T13:42:31Z</time>
      </trkpt>
      <trkpt lat="44.46302" lon="5.01808">
        <ele>314.488403</ele>
        <time>2011-02-20T13:42:34Z</time>
      </trkpt>
      <trkpt lat="44.46305" lon="5.01807">
        <ele>314.488403</ele>
        <time>2011-02-20T13:42:36Z</time>
      </trkpt>
      <trkpt lat="44.46315" lon="5.01806">
        <ele>313.527222</ele>
        <time>2011-02-20T13:42:43Z</time>
      </trkpt>
      <trkpt lat="44.4633" lon="5.01801">
        <ele>311.604492</ele>
        <time>2011-02-20T13:42:58Z</time>
      </trkpt>
      <trkpt lat="44.46338" lon="5.01806">
        <ele>310.162476</ele>
        <time>2011-02-20T13:43:04Z</time>
      </trkpt>
      <trkpt lat="44.46342" lon="5.01808">
        <ele>310.162476</ele>
        <time>2011-02-20T13:43:07Z</time>
      </trkpt>
      <trkpt lat="44.46347" lon="5.01813">
        <ele>310.162476</ele>
        <time>2011-02-20T13:43:11Z</time>
      </trkpt>
      <trkpt lat="44.4636" lon="5.01826">
        <ele>309.681885</ele>
        <time>2011-02-20T13:43:25Z</time>
      </trkpt>
      <trkpt lat="44.46361" lon="5.01828">
        <ele>309.681885</ele>
        <time>2011-02-20T13:43:27Z</time>
      </trkpt>
      <trkpt lat="44.46376" lon="5.01843">
        <ele>308.239868</ele>
        <time>2011-02-20T13:43:41Z</time>
      </trkpt>
      <trkpt lat="44.46387" lon="5.01849">
        <ele>307.759277</ele>
        <time>2011-02-20T13:43:50Z</time>
      </trkpt>
      <trkpt lat="44.46401" lon="5.0186">
        <ele>307.278564</ele>
        <time>2011-02-20T13:44:04Z</time>
      </trkpt>
      <trkpt lat="44.46416" lon="5.01882">
        <ele>310.162476</ele>
        <time>2011-02-20T13:44:22Z</time>
      </trkpt>
      <trkpt lat="44.46432" lon="5.01893">
        <ele>311.123779</ele>
        <time>2011-02-20T13:44:38Z</time>
      </trkpt>
      <trkpt lat="44.46449" lon="5.01905">
        <ele>311.123779</ele>
        <time>2011-02-20T13:44:53Z</time>
      </trkpt>
      <trkpt lat="44.46466" lon="5.01917">
        <ele>311.604492</ele>
        <time>2011-02-20T13:45:10Z</time>
      </trkpt>
      <trkpt lat="44.46486" lon="5.01931">
        <ele>311.604492</ele>
        <time>2011-02-20T13:45:27Z</time>
      </trkpt>
      <trkpt lat="44.46492" lon="5.01937">
        <ele>310.162476</ele>
        <time>2011-02-20T13:45:35Z</time>
      </trkpt>
      <trkpt lat="44.4651" lon="5.01946">
        <ele>310.162476</ele>
        <time>2011-02-20T13:45:52Z</time>
      </trkpt>
      <trkpt lat="44.46525" lon="5.01968">
        <ele>311.123779</ele>
        <time>2011-02-20T13:46:08Z</time>
      </trkpt>
      <trkpt lat="44.46532" lon="5.01974">
        <ele>310.643066</ele>
        <time>2011-02-20T13:46:14Z</time>
      </trkpt>
      <trkpt lat="44.46536" lon="5.0198">
        <ele>312.565796</ele>
        <time>2011-02-20T13:46:18Z</time>
      </trkpt>
      <trkpt lat="44.46555" lon="5.02008">
        <ele>312.085205</ele>
        <time>2011-02-20T13:46:39Z</time>
      </trkpt>
      <trkpt lat="44.46578" lon="5.02026">
        <ele>312.565796</ele>
        <time>2011-02-20T13:47:02Z</time>
      </trkpt>
      <trkpt lat="44.46598" lon="5.02021">
        <ele>310.162476</ele>
        <time>2011-02-20T13:47:20Z</time>
      </trkpt>
      <trkpt lat="44.46599" lon="5.0202">
        <ele>310.162476</ele>
        <time>2011-02-20T13:47:21Z</time>
      </trkpt>
      <trkpt lat="44.46621" lon="5.02015">
        <ele>311.123779</ele>
        <time>2011-02-20T13:47:38Z</time>
      </trkpt>
      <trkpt lat="44.4665" lon="5.02025">
        <ele>310.643066</ele>
        <time>2011-02-20T13:48:04Z</time>
      </trkpt>
      <trkpt lat="44.46652" lon="5.02028">
        <ele>310.643066</ele>
        <time>2011-02-20T13:48:07Z</time>
      </trkpt>
      <trkpt lat="44.46655" lon="5.02047">
        <ele>310.643066</ele>
        <time>2011-02-20T13:48:19Z</time>
      </trkpt>
      <trkpt lat="44.4666" lon="5.02052">
        <ele>311.123779</ele>
        <time>2011-02-20T13:48:26Z</time>
      </trkpt>
      <trkpt lat="44.46679" lon="5.02053">
        <ele>310.643066</ele>
        <time>2011-02-20T13:48:45Z</time>
      </trkpt>
      <trkpt lat="44.46683" lon="5.02056">
        <ele>311.604492</ele>
        <time>2011-02-20T13:48:50Z</time>
      </trkpt>
      <trkpt lat="44.46696" lon="5.02058">
        <ele>312.565796</ele>
        <time>2011-02-20T13:49:06Z</time>
      </trkpt>
      <trkpt lat="44.46714" lon="5.02051">
        <ele>314.488403</ele>
        <time>2011-02-20T13:49:26Z</time>
      </trkpt>
      <trkpt lat="44.46726" lon="5.02041">
        <ele>315.449829</ele>
        <time>2011-02-20T13:49:45Z</time>
      </trkpt>
      <trkpt lat="44.46745" lon="5.02027">
        <ele>316.891724</ele>
        <time>2011-02-20T13:50:06Z</time>
      </trkpt>
      <trkpt lat="44.46755" lon="5.02012">
        <ele>317.853027</ele>
        <time>2011-02-20T13:50:27Z</time>
      </trkpt>
      <trkpt lat="44.4677" lon="5.01993">
        <ele>319.295044</ele>
        <time>2011-02-20T13:50:50Z</time>
      </trkpt>
      <trkpt lat="44.46784" lon="5.01976">
        <ele>320.256348</ele>
        <time>2011-02-20T13:51:09Z</time>
      </trkpt>
      <trkpt lat="44.46784" lon="5.01956">
        <ele>322.178955</ele>
        <time>2011-02-20T13:51:29Z</time>
      </trkpt>
      <trkpt lat="44.46784" lon="5.01931">
        <ele>324.101563</ele>
        <time>2011-02-20T13:51:50Z</time>
      </trkpt>
      <trkpt lat="44.46789" lon="5.0192">
        <ele>323.620972</ele>
        <time>2011-02-20T13:52:08Z</time>
      </trkpt>
      <trkpt lat="44.46793" lon="5.01936">
        <ele>322.178955</ele>
        <time>2011-02-20T13:52:26Z</time>
      </trkpt>
      <trkpt lat="44.46799" lon="5.01956">
        <ele>321.698364</ele>
        <time>2011-02-20T13:52:47Z</time>
      </trkpt>
      <trkpt lat="44.46803" lon="5.01961">
        <ele>320.737061</ele>
        <time>2011-02-20T13:52:53Z</time>
      </trkpt>
      <trkpt lat="44.46809" lon="5.01967">
        <ele>321.217773</ele>
        <time>2011-02-20T13:53:00Z</time>
      </trkpt>
      <trkpt lat="44.46828" lon="5.01961">
        <ele>321.698364</ele>
        <time>2011-02-20T13:53:21Z</time>
      </trkpt>
      <trkpt lat="44.46844" lon="5.01952">
        <ele>322.178955</ele>
        <time>2011-02-20T13:53:38Z</time>
      </trkpt>
      <trkpt lat="44.46859" lon="5.01951">
        <ele>322.659668</ele>
        <time>2011-02-20T13:53:54Z</time>
      </trkpt>
      <trkpt lat="44.46876" lon="5.01948">
        <ele>323.620972</ele>
        <time>2011-02-20T13:54:10Z</time>
      </trkpt>
      <trkpt lat="44.46889" lon="5.01948">
        <ele>323.620972</ele>
        <time>2011-02-20T13:54:23Z</time>
      </trkpt>
      <trkpt lat="44.46905" lon="5.01946">
        <ele>324.582275</ele>
        <time>2011-02-20T13:54:39Z</time>
      </trkpt>
      <trkpt lat="44.46909" lon="5.01942">
        <ele>326.02417</ele>
        <time>2011-02-20T13:54:57Z</time>
      </trkpt>
      <trkpt lat="44.46908" lon="5.01943">
        <ele>325.543579</ele>
        <time>2011-02-20T13:56:28Z</time>
      </trkpt>
      <trkpt lat="44.46916" lon="5.01934">
        <ele>326.504883</ele>
        <time>2011-02-20T13:59:26Z</time>
      </trkpt>
      <trkpt lat="44.46923" lon="5.01916">
        <ele>324.101563</ele>
        <time>2011-02-20T13:59:43Z</time>
      </trkpt>
      <trkpt lat="44.46923" lon="5.01914">
        <ele>323.620972</ele>
        <time>2011-02-20T13:59:45Z</time>
      </trkpt>
      <trkpt lat="44.46924" lon="5.01904">
        <ele>322.178955</ele>
        <time>2011-02-20T13:59:52Z</time>
      </trkpt>
      <trkpt lat="44.46936" lon="5.01904">
        <ele>321.698364</ele>
        <time>2011-02-20T14:00:06Z</time>
      </trkpt>
      <trkpt lat="44.46939" lon="5.01909">
        <ele>321.698364</ele>
        <time>2011-02-20T14:00:09Z</time>
      </trkpt>
      <trkpt lat="44.4694" lon="5.01913">
        <ele>322.659668</ele>
        <time>2011-02-20T14:00:12Z</time>
      </trkpt>
      <trkpt lat="44.46947" lon="5.01923">
        <ele>326.02417</ele>
        <time>2011-02-20T14:00:28Z</time>
      </trkpt>
      <trkpt lat="44.46961" lon="5.01917">
        <ele>328.427612</ele>
        <time>2011-02-20T14:00:46Z</time>
      </trkpt>
      <trkpt lat="44.46963" lon="5.01912">
        <ele>328.427612</ele>
        <time>2011-02-20T14:00:50Z</time>
      </trkpt>
      <trkpt lat="44.4697" lon="5.01907">
        <ele>327.466187</ele>
        <time>2011-02-20T14:01:06Z</time>
      </trkpt>
      <trkpt lat="44.46978" lon="5.01903">
        <ele>324.101563</ele>
        <time>2011-02-20T14:01:23Z</time>
      </trkpt>
      <trkpt lat="44.4698" lon="5.01911">
        <ele>321.217773</ele>
        <time>2011-02-20T14:01:36Z</time>
      </trkpt>
      <trkpt lat="44.46976" lon="5.01926">
        <ele>317.853027</ele>
        <time>2011-02-20T14:01:50Z</time>
      </trkpt>
      <trkpt lat="44.46978" lon="5.01931">
        <ele>315.449829</ele>
        <time>2011-02-20T14:02:03Z</time>
      </trkpt>
      <trkpt lat="44.46979" lon="5.01933">
        <ele>316.411011</ele>
        <time>2011-02-20T14:02:09Z</time>
      </trkpt>
      <trkpt lat="44.46986" lon="5.01932">
        <ele>316.891724</ele>
        <time>2011-02-20T14:02:23Z</time>
      </trkpt>
      <trkpt lat="44.46989" lon="5.01927">
        <ele>318.814331</ele>
        <time>2011-02-20T14:02:36Z</time>
      </trkpt>
      <trkpt lat="44.46994" lon="5.01923">
        <ele>321.698364</ele>
        <time>2011-02-20T14:02:49Z</time>
      </trkpt>
      <trkpt lat="44.46998" lon="5.01922">
        <ele>324.101563</ele>
        <time>2011-02-20T14:03:06Z</time>
      </trkpt>
      <trkpt lat="44.47" lon="5.01914">
        <ele>326.504883</ele>
        <time>2011-02-20T14:03:37Z</time>
      </trkpt>
      <trkpt lat="44.47" lon="5.01911">
        <ele>328.427612</ele>
        <time>2011-02-20T14:03:46Z</time>
      </trkpt>
      <trkpt lat="44.47" lon="5.01911">
        <ele>316.411011</ele>
        <time>2011-02-20T14:03:52Z</time>
      </trkpt>
      <trkpt lat="44.47001" lon="5.01911">
        <ele>334.676147</ele>
        <time>2011-02-20T14:03:53Z</time>
      </trkpt>
      <trkpt lat="44.47001" lon="5.01911">
        <ele>329.869507</ele>
        <time>2011-02-20T14:03:54Z</time>
      </trkpt>
      <trkpt lat="44.47003" lon="5.01911">
        <ele>328.908325</ele>
        <time>2011-02-20T14:03:56Z</time>
      </trkpt>
      <trkpt lat="44.47002" lon="5.01911">
        <ele>329.388916</ele>
        <time>2011-02-20T14:04:30Z</time>
      </trkpt>
      <trkpt lat="44.47002" lon="5.0191">
        <ele>330.35022</ele>
        <time>2011-02-20T14:05:01Z</time>
      </trkpt>
      <trkpt lat="44.47005" lon="5.01912">
        <ele>329.388916</ele>
        <time>2011-02-20T14:05:42Z</time>
      </trkpt>
      <trkpt lat="44.47019" lon="5.01915">
        <ele>331.792114</ele>
        <time>2011-02-20T14:06:31Z</time>
      </trkpt>
      <trkpt lat="44.47023" lon="5.01913">
        <ele>331.311523</ele>
        <time>2011-02-20T14:06:37Z</time>
      </trkpt>
      <trkpt lat="44.47036" lon="5.01915">
        <ele>330.830933</ele>
        <time>2011-02-20T14:06:52Z</time>
      </trkpt>
      <trkpt lat="44.47047" lon="5.01923">
        <ele>330.35022</ele>
        <time>2011-02-20T14:07:07Z</time>
      </trkpt>
      <trkpt lat="44.47055" lon="5.0193">
        <ele>330.35022</ele>
        <time>2011-02-20T14:07:19Z</time>
      </trkpt>
      <trkpt lat="44.47058" lon="5.01929">
        <ele>332.272827</ele>
        <time>2011-02-20T14:07:22Z</time>
      </trkpt>
      <trkpt lat="44.47063" lon="5.01929">
        <ele>329.869507</ele>
        <time>2011-02-20T14:07:30Z</time>
      </trkpt>
      <trkpt lat="44.47071" lon="5.01922">
        <ele>332.272827</ele>
        <time>2011-02-20T14:07:47Z</time>
      </trkpt>
      <trkpt lat="44.47072" lon="5.01913">
        <ele>333.714722</ele>
        <time>2011-02-20T14:08:03Z</time>
      </trkpt>
      <trkpt lat="44.47073" lon="5.01893">
        <ele>336.118164</ele>
        <time>2011-02-20T14:08:23Z</time>
      </trkpt>
      <trkpt lat="44.47074" lon="5.01879">
        <ele>338.040771</ele>
        <time>2011-02-20T14:08:37Z</time>
      </trkpt>
      <trkpt lat="44.47075" lon="5.01863">
        <ele>339.482666</ele>
        <time>2011-02-20T14:08:52Z</time>
      </trkpt>
      <trkpt lat="44.47086" lon="5.01857">
        <ele>338.040771</ele>
        <time>2011-02-20T14:09:08Z</time>
      </trkpt>
      <trkpt lat="44.47101" lon="5.01861">
        <ele>335.156738</ele>
        <time>2011-02-20T14:09:29Z</time>
      </trkpt>
      <trkpt lat="44.47103" lon="5.01861">
        <ele>334.676147</ele>
        <time>2011-02-20T14:09:31Z</time>
      </trkpt>
      <trkpt lat="44.47112" lon="5.01864">
        <ele>331.792114</ele>
        <time>2011-02-20T14:09:47Z</time>
      </trkpt>
      <trkpt lat="44.47124" lon="5.01882">
        <ele>330.35022</ele>
        <time>2011-02-20T14:10:19Z</time>
      </trkpt>
      <trkpt lat="44.47117" lon="5.01894">
        <ele>333.234131</ele>
        <time>2011-02-20T14:10:36Z</time>
      </trkpt>
      <trkpt lat="44.47122" lon="5.01903">
        <ele>335.637329</ele>
        <time>2011-02-20T14:10:56Z</time>
      </trkpt>
      <trkpt lat="44.47137" lon="5.01908">
        <ele>335.637329</ele>
        <time>2011-02-20T14:11:16Z</time>
      </trkpt>
      <trkpt lat="44.47149" lon="5.01915">
        <ele>333.234131</ele>
        <time>2011-02-20T14:11:36Z</time>
      </trkpt>
      <trkpt lat="44.47158" lon="5.01916">
        <ele>329.869507</ele>
        <time>2011-02-20T14:11:48Z</time>
      </trkpt>
      <trkpt lat="44.47159" lon="5.01916">
        <ele>329.869507</ele>
        <time>2011-02-20T14:11:49Z</time>
      </trkpt>
      <trkpt lat="44.47176" lon="5.01921">
        <ele>326.985596</ele>
        <time>2011-02-20T14:12:09Z</time>
      </trkpt>
      <trkpt lat="44.47188" lon="5.01919">
        <ele>326.504883</ele>
        <time>2011-02-20T14:12:28Z</time>
      </trkpt>
      <trkpt lat="44.47198" lon="5.01918">
        <ele>329.388916</ele>
        <time>2011-02-20T14:12:45Z</time>
      </trkpt>
      <trkpt lat="44.47205" lon="5.01918">
        <ele>331.792114</ele>
        <time>2011-02-20T14:13:02Z</time>
      </trkpt>
      <trkpt lat="44.47213" lon="5.01903">
        <ele>334.676147</ele>
        <time>2011-02-20T14:13:23Z</time>
      </trkpt>
      <trkpt lat="44.4722" lon="5.01891">
        <ele>338.040771</ele>
        <time>2011-02-20T14:13:41Z</time>
      </trkpt>
      <trkpt lat="44.4723" lon="5.01884">
        <ele>341.405273</ele>
        <time>2011-02-20T14:14:00Z</time>
      </trkpt>
      <trkpt lat="44.4724" lon="5.0188">
        <ele>343.327881</ele>
        <time>2011-02-20T14:14:13Z</time>
      </trkpt>
      <trkpt lat="44.47251" lon="5.01881">
        <ele>345.731323</ele>
        <time>2011-02-20T14:14:29Z</time>
      </trkpt>
      <trkpt lat="44.47265" lon="5.01891">
        <ele>346.692627</ele>
        <time>2011-02-20T14:14:46Z</time>
      </trkpt>
      <trkpt lat="44.47284" lon="5.01906">
        <ele>346.212036</ele>
        <time>2011-02-20T14:15:07Z</time>
      </trkpt>
      <trkpt lat="44.47304" lon="5.01923">
        <ele>344.289429</ele>
        <time>2011-02-20T14:15:28Z</time>
      </trkpt>
      <trkpt lat="44.47318" lon="5.01938">
        <ele>344.77002</ele>
        <time>2011-02-20T14:15:48Z</time>
      </trkpt>
      <trkpt lat="44.4733" lon="5.01948">
        <ele>345.25061</ele>
        <time>2011-02-20T14:16:01Z</time>
      </trkpt>
      <trkpt lat="44.47346" lon="5.0196">
        <ele>346.692627</ele>
        <time>2011-02-20T14:16:19Z</time>
      </trkpt>
      <trkpt lat="44.47359" lon="5.01971">
        <ele>345.25061</ele>
        <time>2011-02-20T14:16:35Z</time>
      </trkpt>
      <trkpt lat="44.47379" lon="5.01985">
        <ele>347.173218</ele>
        <time>2011-02-20T14:16:55Z</time>
      </trkpt>
      <trkpt lat="44.47403" lon="5.02001">
        <ele>346.692627</ele>
        <time>2011-02-20T14:17:20Z</time>
      </trkpt>
      <trkpt lat="44.47423" lon="5.02015">
        <ele>346.212036</ele>
        <time>2011-02-20T14:17:40Z</time>
      </trkpt>
      <trkpt lat="44.47437" lon="5.02029">
        <ele>344.77002</ele>
        <time>2011-02-20T14:17:59Z</time>
      </trkpt>
      <trkpt lat="44.47437" lon="5.02046">
        <ele>343.327881</ele>
        <time>2011-02-20T14:18:16Z</time>
      </trkpt>
      <trkpt lat="44.47433" lon="5.02054">
        <ele>342.366699</ele>
        <time>2011-02-20T14:18:24Z</time>
      </trkpt>
      <trkpt lat="44.47421" lon="5.02068">
        <ele>341.885986</ele>
        <time>2011-02-20T14:18:38Z</time>
      </trkpt>
      <trkpt lat="44.47415" lon="5.02079">
        <ele>340.924683</ele>
        <time>2011-02-20T14:18:48Z</time>
      </trkpt>
      <trkpt lat="44.47423" lon="5.02091">
        <ele>341.885986</ele>
        <time>2011-02-20T14:19:02Z</time>
      </trkpt>
      <trkpt lat="44.47439" lon="5.02102">
        <ele>342.366699</ele>
        <time>2011-02-20T14:19:21Z</time>
      </trkpt>
      <trkpt lat="44.47452" lon="5.02117">
        <ele>341.405273</ele>
        <time>2011-02-20T14:19:37Z</time>
      </trkpt>
      <trkpt lat="44.47467" lon="5.02127">
        <ele>340.444092</ele>
        <time>2011-02-20T14:19:51Z</time>
      </trkpt>
      <trkpt lat="44.47482" lon="5.02138">
        <ele>339.482666</ele>
        <time>2011-02-20T14:20:11Z</time>
      </trkpt>
      <trkpt lat="44.47501" lon="5.02149">
        <ele>336.118164</ele>
        <time>2011-02-20T14:20:28Z</time>
      </trkpt>
      <trkpt lat="44.47516" lon="5.02156">
        <ele>337.560059</ele>
        <time>2011-02-20T14:20:46Z</time>
      </trkpt>
      <trkpt lat="44.47537" lon="5.02165">
        <ele>337.079468</ele>
        <time>2011-02-20T14:21:08Z</time>
      </trkpt>
      <trkpt lat="44.47541" lon="5.02169">
        <ele>338.040771</ele>
        <time>2011-02-20T14:21:13Z</time>
      </trkpt>
      <trkpt lat="44.47548" lon="5.02171">
        <ele>338.040771</ele>
        <time>2011-02-20T14:21:21Z</time>
      </trkpt>
      <trkpt lat="44.47569" lon="5.02182">
        <ele>339.002075</ele>
        <time>2011-02-20T14:21:43Z</time>
      </trkpt>
      <trkpt lat="44.47588" lon="5.02193">
        <ele>339.002075</ele>
        <time>2011-02-20T14:22:03Z</time>
      </trkpt>
      <trkpt lat="44.47605" lon="5.02199">
        <ele>340.444092</ele>
        <time>2011-02-20T14:22:21Z</time>
      </trkpt>
      <trkpt lat="44.47624" lon="5.02209">
        <ele>341.405273</ele>
        <time>2011-02-20T14:22:42Z</time>
      </trkpt>
      <trkpt lat="44.47647" lon="5.02218">
        <ele>339.482666</ele>
        <time>2011-02-20T14:23:06Z</time>
      </trkpt>
      <trkpt lat="44.47651" lon="5.02221">
        <ele>339.963379</ele>
        <time>2011-02-20T14:23:24Z</time>
      </trkpt>
      <trkpt lat="44.47651" lon="5.02222">
        <ele>340.924683</ele>
        <time>2011-02-20T14:23:26Z</time>
      </trkpt>
      <trkpt lat="44.47665" lon="5.02233">
        <ele>339.482666</ele>
        <time>2011-02-20T14:23:57Z</time>
      </trkpt>
      <trkpt lat="44.47676" lon="5.02246">
        <ele>339.963379</ele>
        <time>2011-02-20T14:24:12Z</time>
      </trkpt>
      <trkpt lat="44.47695" lon="5.0226">
        <ele>340.444092</ele>
        <time>2011-02-20T14:24:32Z</time>
      </trkpt>
      <trkpt lat="44.47702" lon="5.02267">
        <ele>340.924683</ele>
        <time>2011-02-20T14:24:41Z</time>
      </trkpt>
      <trkpt lat="44.47717" lon="5.02274">
        <ele>339.482666</ele>
        <time>2011-02-20T14:24:54Z</time>
      </trkpt>
      <trkpt lat="44.47729" lon="5.02283">
        <ele>339.482666</ele>
        <time>2011-02-20T14:25:15Z</time>
      </trkpt>
      <trkpt lat="44.47744" lon="5.02294">
        <ele>339.482666</ele>
        <time>2011-02-20T14:25:31Z</time>
      </trkpt>
      <trkpt lat="44.47756" lon="5.02303">
        <ele>339.482666</ele>
        <time>2011-02-20T14:25:45Z</time>
      </trkpt>
      <trkpt lat="44.47768" lon="5.02311">
        <ele>339.963379</ele>
        <time>2011-02-20T14:25:56Z</time>
      </trkpt>
      <trkpt lat="44.47774" lon="5.02316">
        <ele>339.002075</ele>
        <time>2011-02-20T14:26:07Z</time>
      </trkpt>
      <trkpt lat="44.47781" lon="5.02318">
        <ele>339.002075</ele>
        <time>2011-02-20T14:26:17Z</time>
      </trkpt>
      <trkpt lat="44.47785" lon="5.02319">
        <ele>337.079468</ele>
        <time>2011-02-20T14:26:20Z</time>
      </trkpt>
      <trkpt lat="44.47796" lon="5.02316">
        <ele>334.676147</ele>
        <time>2011-02-20T14:26:32Z</time>
      </trkpt>
      <trkpt lat="44.47807" lon="5.02318">
        <ele>333.234131</ele>
        <time>2011-02-20T14:26:38Z</time>
      </trkpt>
      <trkpt lat="44.47821" lon="5.02318">
        <ele>333.714722</ele>
        <time>2011-02-20T14:26:50Z</time>
      </trkpt>
      <trkpt lat="44.47832" lon="5.02324">
        <ele>335.156738</ele>
        <time>2011-02-20T14:27:00Z</time>
      </trkpt>
      <trkpt lat="44.47844" lon="5.02333">
        <ele>333.714722</ele>
        <time>2011-02-20T14:27:12Z</time>
      </trkpt>
      <trkpt lat="44.47846" lon="5.02336">
        <ele>333.234131</ele>
        <time>2011-02-20T14:27:14Z</time>
      </trkpt>
      <trkpt lat="44.47851" lon="5.02344">
        <ele>334.676147</ele>
        <time>2011-02-20T14:27:20Z</time>
      </trkpt>
      <trkpt lat="44.47861" lon="5.02361">
        <ele>335.156738</ele>
        <time>2011-02-20T14:27:33Z</time>
      </trkpt>
      <trkpt lat="44.47862" lon="5.02367">
        <ele>333.714722</ele>
        <time>2011-02-20T14:27:37Z</time>
      </trkpt>
      <trkpt lat="44.47873" lon="5.02391">
        <ele>334.195435</ele>
        <time>2011-02-20T14:27:55Z</time>
      </trkpt>
      <trkpt lat="44.47887" lon="5.02409">
        <ele>335.156738</ele>
        <time>2011-02-20T14:28:14Z</time>
      </trkpt>
      <trkpt lat="44.47897" lon="5.02423">
        <ele>336.118164</ele>
        <time>2011-02-20T14:28:30Z</time>
      </trkpt>
      <trkpt lat="44.47898" lon="5.02425">
        <ele>336.598877</ele>
        <time>2011-02-20T14:28:31Z</time>
      </trkpt>
      <trkpt lat="44.47909" lon="5.02441">
        <ele>336.118164</ele>
        <time>2011-02-20T14:28:45Z</time>
      </trkpt>
      <trkpt lat="44.47913" lon="5.02451">
        <ele>337.079468</ele>
        <time>2011-02-20T14:28:56Z</time>
      </trkpt>
      <trkpt lat="44.47927" lon="5.02471">
        <ele>338.521484</ele>
        <time>2011-02-20T14:29:14Z</time>
      </trkpt>
      <trkpt lat="44.47936" lon="5.02483">
        <ele>338.521484</ele>
        <time>2011-02-20T14:29:27Z</time>
      </trkpt>
      <trkpt lat="44.4795" lon="5.02503">
        <ele>340.924683</ele>
        <time>2011-02-20T14:29:46Z</time>
      </trkpt>
      <trkpt lat="44.47951" lon="5.02504">
        <ele>340.444092</ele>
        <time>2011-02-20T14:29:47Z</time>
      </trkpt>
      <trkpt lat="44.47953" lon="5.02506">
        <ele>339.963379</ele>
        <time>2011-02-20T14:29:51Z</time>
      </trkpt>
      <trkpt lat="44.47966" lon="5.02528">
        <ele>339.482666</ele>
        <time>2011-02-20T14:30:10Z</time>
      </trkpt>
      <trkpt lat="44.47982" lon="5.02547">
        <ele>339.002075</ele>
        <time>2011-02-20T14:30:28Z</time>
      </trkpt>
      <trkpt lat="44.47989" lon="5.02557">
        <ele>337.079468</ele>
        <time>2011-02-20T14:30:40Z</time>
      </trkpt>
      <trkpt lat="44.48002" lon="5.02576">
        <ele>338.040771</ele>
        <time>2011-02-20T14:30:57Z</time>
      </trkpt>
      <trkpt lat="44.48007" lon="5.02582">
        <ele>339.002075</ele>
        <time>2011-02-20T14:31:05Z</time>
      </trkpt>
      <trkpt lat="44.48012" lon="5.02589">
        <ele>339.002075</ele>
        <time>2011-02-20T14:31:11Z</time>
      </trkpt>
      <trkpt lat="44.48017" lon="5.02596">
        <ele>338.521484</ele>
        <time>2011-02-20T14:31:17Z</time>
      </trkpt>
      <trkpt lat="44.48036" lon="5.02619">
        <ele>339.002075</ele>
        <time>2011-02-20T14:31:39Z</time>
      </trkpt>
      <trkpt lat="44.48053" lon="5.02641">
        <ele>339.963379</ele>
        <time>2011-02-20T14:32:00Z</time>
      </trkpt>
      <trkpt lat="44.4807" lon="5.02664">
        <ele>340.924683</ele>
        <time>2011-02-20T14:32:22Z</time>
      </trkpt>
      <trkpt lat="44.48078" lon="5.02682">
        <ele>341.405273</ele>
        <time>2011-02-20T14:32:38Z</time>
      </trkpt>
      <trkpt lat="44.48075" lon="5.02691">
        <ele>340.924683</ele>
        <time>2011-02-20T14:32:55Z</time>
      </trkpt>
      <trkpt lat="44.48075" lon="5.02699">
        <ele>340.924683</ele>
        <time>2011-02-20T14:34:13Z</time>
      </trkpt>
      <trkpt lat="44.48074" lon="5.02711">
        <ele>340.444092</ele>
        <time>2011-02-20T14:35:13Z</time>
      </trkpt>
      <trkpt lat="44.48072" lon="5.02715">
        <ele>340.444092</ele>
        <time>2011-02-20T14:35:17Z</time>
      </trkpt>
      <trkpt lat="44.48054" lon="5.0273">
        <ele>340.444092</ele>
        <time>2011-02-20T14:35:36Z</time>
      </trkpt>
      <trkpt lat="44.48042" lon="5.02747">
        <ele>340.444092</ele>
        <time>2011-02-20T14:35:53Z</time>
      </trkpt>
      <trkpt lat="44.48031" lon="5.02763">
        <ele>340.924683</ele>
        <time>2011-02-20T14:36:10Z</time>
      </trkpt>
      <trkpt lat="44.48028" lon="5.02769">
        <ele>340.924683</ele>
        <time>2011-02-20T14:36:16Z</time>
      </trkpt>
      <trkpt lat="44.48017" lon="5.02792">
        <ele>341.885986</ele>
        <time>2011-02-20T14:36:34Z</time>
      </trkpt>
      <trkpt lat="44.48012" lon="5.02809">
        <ele>341.885986</ele>
        <time>2011-02-20T14:36:50Z</time>
      </trkpt>
      <trkpt lat="44.48006" lon="5.02829">
        <ele>342.366699</ele>
        <time>2011-02-20T14:37:04Z</time>
      </trkpt>
      <trkpt lat="44.48001" lon="5.02844">
        <ele>342.84729</ele>
        <time>2011-02-20T14:37:16Z</time>
      </trkpt>
      <trkpt lat="44.47994" lon="5.02861">
        <ele>341.885986</ele>
        <time>2011-02-20T14:37:32Z</time>
      </trkpt>
      <trkpt lat="44.47989" lon="5.02869">
        <ele>342.366699</ele>
        <time>2011-02-20T14:37:40Z</time>
      </trkpt>
      <trkpt lat="44.47985" lon="5.02876">
        <ele>342.366699</ele>
        <time>2011-02-20T14:37:48Z</time>
      </trkpt>
      <trkpt lat="44.47966" lon="5.02883">
        <ele>344.289429</ele>
        <time>2011-02-20T14:38:07Z</time>
      </trkpt>
      <trkpt lat="44.47949" lon="5.02885">
        <ele>345.25061</ele>
        <time>2011-02-20T14:38:24Z</time>
      </trkpt>
      <trkpt lat="44.47935" lon="5.02888">
        <ele>346.212036</ele>
        <time>2011-02-20T14:38:38Z</time>
      </trkpt>
      <trkpt lat="44.47915" lon="5.02891">
        <ele>347.173218</ele>
        <time>2011-02-20T14:38:57Z</time>
      </trkpt>
      <trkpt lat="44.47913" lon="5.02891">
        <ele>347.653931</ele>
        <time>2011-02-20T14:39:00Z</time>
      </trkpt>
      <trkpt lat="44.4791" lon="5.02891">
        <ele>347.653931</ele>
        <time>2011-02-20T14:39:03Z</time>
      </trkpt>
      <trkpt lat="44.47893" lon="5.02895">
        <ele>349.095825</ele>
        <time>2011-02-20T14:39:19Z</time>
      </trkpt>
      <trkpt lat="44.47875" lon="5.02894">
        <ele>350.057251</ele>
        <time>2011-02-20T14:39:35Z</time>
      </trkpt>
      <trkpt lat="44.47865" lon="5.02896">
        <ele>350.057251</ele>
        <time>2011-02-20T14:39:47Z</time>
      </trkpt>
      <trkpt lat="44.47849" lon="5.02898">
        <ele>351.499146</ele>
        <time>2011-02-20T14:40:07Z</time>
      </trkpt>
      <trkpt lat="44.47832" lon="5.02896">
        <ele>351.018433</ele>
        <time>2011-02-20T14:40:24Z</time>
      </trkpt>
      <trkpt lat="44.47817" lon="5.02893">
        <ele>351.018433</ele>
        <time>2011-02-20T14:40:41Z</time>
      </trkpt>
      <trkpt lat="44.47812" lon="5.02889">
        <ele>351.018433</ele>
        <time>2011-02-20T14:40:48Z</time>
      </trkpt>
      <trkpt lat="44.47792" lon="5.02891">
        <ele>351.018433</ele>
        <time>2011-02-20T14:41:08Z</time>
      </trkpt>
      <trkpt lat="44.47762" lon="5.02887">
        <ele>351.018433</ele>
        <time>2011-02-20T14:41:34Z</time>
      </trkpt>
      <trkpt lat="44.47755" lon="5.02886">
        <ele>351.018433</ele>
        <time>2011-02-20T14:41:48Z</time>
      </trkpt>
      <trkpt lat="44.47753" lon="5.02887">
        <ele>351.018433</ele>
        <time>2011-02-20T14:42:33Z</time>
      </trkpt>
      <trkpt lat="44.47753" lon="5.02889">
        <ele>351.018433</ele>
        <time>2011-02-20T14:42:59Z</time>
      </trkpt>
      <trkpt lat="44.47748" lon="5.02886">
        <ele>351.499146</ele>
        <time>2011-02-20T14:44:18Z</time>
      </trkpt>
      <trkpt lat="44.47736" lon="5.02878">
        <ele>351.499146</ele>
        <time>2011-02-20T14:44:33Z</time>
      </trkpt>
      <trkpt lat="44.47722" lon="5.02875">
        <ele>351.979858</ele>
        <time>2011-02-20T14:44:46Z</time>
      </trkpt>
      <trkpt lat="44.4772" lon="5.02876">
        <ele>351.499146</ele>
        <time>2011-02-20T14:44:49Z</time>
      </trkpt>
      <trkpt lat="44.47715" lon="5.02874">
        <ele>351.499146</ele>
        <time>2011-02-20T14:44:52Z</time>
      </trkpt>
      <trkpt lat="44.47708" lon="5.02879">
        <ele>353.902588</ele>
        <time>2011-02-20T14:45:05Z</time>
      </trkpt>
      <trkpt lat="44.47703" lon="5.02888">
        <ele>354.86377</ele>
        <time>2011-02-20T14:45:15Z</time>
      </trkpt>
      <trkpt lat="44.47694" lon="5.02898">
        <ele>355.344482</ele>
        <time>2011-02-20T14:45:26Z</time>
      </trkpt>
      <trkpt lat="44.47687" lon="5.02894">
        <ele>355.825195</ele>
        <time>2011-02-20T14:45:40Z</time>
      </trkpt>
      <trkpt lat="44.47685" lon="5.02895">
        <ele>355.825195</ele>
        <time>2011-02-20T14:45:43Z</time>
      </trkpt>
      <trkpt lat="44.47665" lon="5.02896">
        <ele>355.344482</ele>
        <time>2011-02-20T14:46:01Z</time>
      </trkpt>
      <trkpt lat="44.47663" lon="5.02896">
        <ele>354.86377</ele>
        <time>2011-02-20T14:46:19Z</time>
      </trkpt>
      <trkpt lat="44.47667" lon="5.02889">
        <ele>355.344482</ele>
        <time>2011-02-20T14:46:48Z</time>
      </trkpt>
      <trkpt lat="44.47667" lon="5.02888">
        <ele>346.692627</ele>
        <time>2011-02-20T14:46:51Z</time>
      </trkpt>
      <trkpt lat="44.47667" lon="5.02888">
        <ele>353.421875</ele>
        <time>2011-02-20T14:46:52Z</time>
      </trkpt>
      <trkpt lat="44.47668" lon="5.02888">
        <ele>363.035034</ele>
        <time>2011-02-20T14:46:53Z</time>
      </trkpt>
      <trkpt lat="44.47668" lon="5.02888">
        <ele>357.26709</ele>
        <time>2011-02-20T14:46:54Z</time>
      </trkpt>
      <trkpt lat="44.47668" lon="5.02888">
        <ele>354.383179</ele>
        <time>2011-02-20T14:46:58Z</time>
      </trkpt>
      <trkpt lat="44.47671" lon="5.02889">
        <ele>355.344482</ele>
        <time>2011-02-20T14:47:11Z</time>
      </trkpt>
      <trkpt lat="44.47672" lon="5.02889">
        <ele>351.499146</ele>
        <time>2011-02-20T14:47:12Z</time>
      </trkpt>
      <trkpt lat="44.47673" lon="5.02889">
        <ele>354.86377</ele>
        <time>2011-02-20T14:47:13Z</time>
      </trkpt>
      <trkpt lat="44.47673" lon="5.02888">
        <ele>355.825195</ele>
        <time>2011-02-20T14:47:15Z</time>
      </trkpt>
      <trkpt lat="44.47675" lon="5.0289">
        <ele>352.460571</ele>
        <time>2011-02-20T14:47:45Z</time>
      </trkpt>
      <trkpt lat="44.47675" lon="5.0289">
        <ele>355.825195</ele>
        <time>2011-02-20T14:47:48Z</time>
      </trkpt>
      <trkpt lat="44.47674" lon="5.02892">
        <ele>352.460571</ele>
        <time>2011-02-20T14:48:08Z</time>
      </trkpt>
      <trkpt lat="44.47675" lon="5.02889">
        <ele>356.786377</ele>
        <time>2011-02-20T14:48:10Z</time>
      </trkpt>
      <trkpt lat="44.47672" lon="5.02888">
        <ele>351.499146</ele>
        <time>2011-02-20T14:48:31Z</time>
      </trkpt>
      <trkpt lat="44.47672" lon="5.02888">
        <ele>363.515747</ele>
        <time>2011-02-20T14:48:32Z</time>
      </trkpt>
      <trkpt lat="44.47672" lon="5.02888">
        <ele>356.786377</ele>
        <time>2011-02-20T14:48:33Z</time>
      </trkpt>
      <trkpt lat="44.47672" lon="5.02888">
        <ele>354.86377</ele>
        <time>2011-02-20T14:48:35Z</time>
      </trkpt>
      <trkpt lat="44.47665" lon="5.02896">
        <ele>354.86377</ele>
        <time>2011-02-20T14:48:53Z</time>
      </trkpt>
      <trkpt lat="44.47664" lon="5.02898">
        <ele>356.305786</ele>
        <time>2011-02-20T14:49:30Z</time>
      </trkpt>
      <trkpt lat="44.47663" lon="5.02899">
        <ele>357.26709</ele>
        <time>2011-02-20T14:50:05Z</time>
      </trkpt>
    </trkseg>
  </trk>
</gpx>